Wetterdaten: Freitag, 06.03.2026
Datum Zeit Temp. Aussen Temp. o. S. Temp +5cm Feuchte Auss Luftdruck Regen Sonnenschein Solar Windböen Empfang
06.03.2026 00:00 9,7 °C 8,3 °C 5,0 °C 69 % 1020,0 hPa 0,0 l/m² 0 min 0 W/m² 3,2 km/h (1 Bft) 97,87 %
06.03.2026 00:02 9,7 °C 8,3 °C 5,0 °C 69 % 1020,0 hPa 0,0 l/m² 0 min 0 W/m² 3,2 km/h (1 Bft) 97,44 %
06.03.2026 00:04 9,7 °C 8,3 °C 5,0 °C 69 % 1020,0 hPa 0,0 l/m² 0 min 0 W/m² 3,2 km/h (1 Bft) 95,74 %
06.03.2026 00:07 9,7 °C 8,3 °C 5,0 °C 69 % 1020,0 hPa 0,0 l/m² 0 min 0 W/m² 3,2 km/h (1 Bft) 95,74 %
06.03.2026 00:08 9,6 °C 8,3 °C 5,0 °C 69 % 1019,9 hPa 0,0 l/m² 0 min 0 W/m² 6,4 km/h (2 Bft) 97,92 %
06.03.2026 00:10 9,6 °C 8,3 °C 5,0 °C 70 % 1019,9 hPa 0,0 l/m² 0 min 0 W/m² 6,4 km/h (2 Bft) 100,00 %
06.03.2026 00:12 9,6 °C 8,3 °C 5,0 °C 70 % 1019,9 hPa 0,0 l/m² 0 min 0 W/m² 0,0 km/h (0 Bft) 100,00 %
06.03.2026 00:18 9,6 °C 8,3 °C 4,4 °C 70 % 1019,9 hPa 0,0 l/m² 0 min 0 W/m² 3,2 km/h (1 Bft) 96,77 %
06.03.2026 00:20 9,5 °C 8,3 °C 4,4 °C 70 % 1019,9 hPa 0,0 l/m² 0 min 0 W/m² 3,2 km/h (1 Bft) 97,14 %
06.03.2026 00:22 9,5 °C 8,3 °C 4,4 °C 70 % 1019,9 hPa 0,0 l/m² 0 min 0 W/m² 3,2 km/h (1 Bft) 95,65 %
06.03.2026 00:24 9,4 °C 7,8 °C 4,4 °C 70 % 1019,9 hPa 0,0 l/m² 0 min 0 W/m² 3,2 km/h (1 Bft) 97,87 %
06.03.2026 00:26 9,4 °C 7,8 °C 4,4 °C 70 % 1019,9 hPa 0,0 l/m² 0 min 0 W/m² 3,2 km/h (1 Bft) 97,87 %
06.03.2026 00:28 9,4 °C 7,8 °C 4,4 °C 70 % 1019,9 hPa 0,0 l/m² 0 min 0 W/m² 0,0 km/h (0 Bft) 97,87 %
06.03.2026 00:30 9,4 °C 7,8 °C 4,4 °C 70 % 1019,9 hPa 0,0 l/m² 0 min 0 W/m² 3,2 km/h (1 Bft) 97,87 %
06.03.2026 00:32 9,3 °C 7,8 °C 4,4 °C 70 % 1019,9 hPa 0,0 l/m² 0 min 0 W/m² 3,2 km/h (1 Bft) 97,87 %
06.03.2026 00:34 9,3 °C 7,8 °C 4,4 °C 70 % 1019,8 hPa 0,0 l/m² 0 min 0 W/m² 3,2 km/h (1 Bft) 97,87 %
06.03.2026 00:36 9,3 °C 7,8 °C 4,4 °C 70 % 1019,9 hPa 0,0 l/m² 0 min 0 W/m² 3,2 km/h (1 Bft) 95,65 %
06.03.2026 00:38 9,2 °C 7,8 °C 4,4 °C 71 % 1019,8 hPa 0,0 l/m² 0 min 0 W/m² 3,2 km/h (1 Bft) 97,87 %
06.03.2026 00:40 9,2 °C 7,8 °C 4,4 °C 71 % 1019,8 hPa 0,0 l/m² 0 min 0 W/m² 6,4 km/h (2 Bft) 97,87 %
06.03.2026 00:42 9,2 °C 7,8 °C 4,4 °C 71 % 1019,8 hPa 0,0 l/m² 0 min 0 W/m² 3,2 km/h (1 Bft) 100,00 %
06.03.2026 00:44 9,2 °C 7,8 °C 4,4 °C 71 % 1019,8 hPa 0,0 l/m² 0 min 0 W/m² 6,4 km/h (2 Bft) 100,00 %
06.03.2026 00:46 9,1 °C 7,8 °C 4,4 °C 71 % 1019,7 hPa 0,0 l/m² 0 min 0 W/m² 3,2 km/h (1 Bft) 97,83 %
06.03.2026 00:48 9,1 °C 8,3 °C 4,4 °C 71 % 1019,7 hPa 0,0 l/m² 0 min 0 W/m² 6,4 km/h (2 Bft) 100,00 %
06.03.2026 00:50 9,1 °C 8,3 °C 4,4 °C 71 % 1019,8 hPa 0,0 l/m² 0 min 0 W/m² 6,4 km/h (2 Bft) 100,00 %
06.03.2026 00:52 9,1 °C 8,3 °C 4,4 °C 71 % 1019,8 hPa 0,0 l/m² 0 min 0 W/m² 9,7 km/h (2 Bft) 100,00 %
06.03.2026 00:54 9,1 °C 8,3 °C 4,4 °C 71 % 1019,8 hPa 0,0 l/m² 0 min 0 W/m² 12,9 km/h (3 Bft) 100,00 %
06.03.2026 00:56 9,1 °C 8,3 °C 4,4 °C 71 % 1019,7 hPa 0,0 l/m² 0 min 0 W/m² 6,4 km/h (2 Bft) 100,00 %
06.03.2026 00:58 9,1 °C 8,3 °C 5,0 °C 71 % 1019,8 hPa 0,0 l/m² 0 min 0 W/m² 9,7 km/h (2 Bft) 97,83 %
06.03.2026 01:00 9,1 °C 8,3 °C 5,0 °C 71 % 1019,8 hPa 0,0 l/m² 0 min 0 W/m² 6,4 km/h (2 Bft) 97,87 %
06.03.2026 01:02 9,1 °C 8,3 °C 5,0 °C 71 % 1019,8 hPa 0,0 l/m² 0 min 0 W/m² 6,4 km/h (2 Bft) 97,87 %
06.03.2026 01:04 9,2 °C 8,3 °C 5,0 °C 71 % 1019,8 hPa 0,0 l/m² 0 min 0 W/m² 12,9 km/h (3 Bft) 97,62 %
06.03.2026 01:06 9,2 °C 8,3 °C 5,0 °C 71 % 1019,8 hPa 0,0 l/m² 0 min 0 W/m² 6,4 km/h (2 Bft) 98,28 %
06.03.2026 01:08 9,2 °C 8,3 °C 5,0 °C 71 % 1019,8 hPa 0,0 l/m² 0 min 0 W/m² 6,4 km/h (2 Bft) 97,87 %
06.03.2026 01:10 9,2 °C 8,3 °C 5,0 °C 71 % 1019,8 hPa 0,0 l/m² 0 min 0 W/m² 6,4 km/h (2 Bft) 97,14 %
06.03.2026 01:12 9,2 °C 8,3 °C 5,0 °C 71 % 1019,8 hPa 0,0 l/m² 0 min 0 W/m² 6,4 km/h (2 Bft) 97,87 %
06.03.2026 01:14 9,2 °C 8,3 °C 5,0 °C 71 % 1019,8 hPa 0,0 l/m² 0 min 0 W/m² 6,4 km/h (2 Bft) 97,87 %
06.03.2026 01:16 9,2 °C 8,3 °C 5,0 °C 71 % 1019,8 hPa 0,0 l/m² 0 min 0 W/m² 6,4 km/h (2 Bft) 97,87 %
06.03.2026 01:18 9,2 °C 8,3 °C 5,0 °C 71 % 1019,8 hPa 0,0 l/m² 0 min 0 W/m² 6,4 km/h (2 Bft) 97,87 %
06.03.2026 01:20 9,2 °C 8,3 °C 5,0 °C 71 % 1019,8 hPa 0,0 l/m² 0 min 0 W/m² 6,4 km/h (2 Bft) 95,74 %
06.03.2026 01:22 9,2 °C 8,3 °C 4,4 °C 71 % 1019,8 hPa 0,0 l/m² 0 min 0 W/m² 3,2 km/h (1 Bft) 95,65 %
06.03.2026 01:24 9,2 °C 8,3 °C 4,4 °C 71 % 1019,9 hPa 0,0 l/m² 0 min 0 W/m² 6,4 km/h (2 Bft) 97,87 %
06.03.2026 01:26 9,2 °C 8,3 °C 4,4 °C 71 % 1019,9 hPa 0,0 l/m² 0 min 0 W/m² 6,4 km/h (2 Bft) 95,74 %
06.03.2026 01:28 9,2 °C 8,3 °C 5,0 °C 71 % 1020,0 hPa 0,0 l/m² 0 min 0 W/m² 12,9 km/h (3 Bft) 97,87 %
06.03.2026 01:30 9,2 °C 8,3 °C 5,0 °C 71 % 1020,0 hPa 0,0 l/m² 0 min 0 W/m² 12,9 km/h (3 Bft) 97,87 %
06.03.2026 01:32 9,2 °C 8,3 °C 5,0 °C 71 % 1019,9 hPa 0,0 l/m² 0 min 0 W/m² 9,7 km/h (2 Bft) 98,11 %
06.03.2026 01:34 9,2 °C 8,3 °C 5,0 °C 71 % 1020,0 hPa 0,0 l/m² 0 min 0 W/m² 16,1 km/h (3 Bft) 93,62 %
06.03.2026 01:36 9,3 °C 8,3 °C 5,0 °C 71 % 1019,9 hPa 0,0 l/m² 0 min 0 W/m² 6,4 km/h (2 Bft) 97,87 %
06.03.2026 01:38 9,3 °C 8,3 °C 5,0 °C 71 % 1020,0 hPa 0,0 l/m² 0 min 0 W/m² 12,9 km/h (3 Bft) 97,87 %
06.03.2026 01:40 9,3 °C 8,3 °C 5,0 °C 71 % 1019,9 hPa 0,0 l/m² 0 min 0 W/m² 6,4 km/h (2 Bft) 97,87 %
06.03.2026 01:42 9,3 °C 8,3 °C 5,0 °C 71 % 1020,0 hPa 0,0 l/m² 0 min 0 W/m² 6,4 km/h (2 Bft) 95,74 %
06.03.2026 01:44 9,3 °C 8,3 °C 4,4 °C 71 % 1020,0 hPa 0,0 l/m² 0 min 0 W/m² 12,9 km/h (3 Bft) 91,30 %
06.03.2026 01:46 9,2 °C 8,3 °C 4,4 °C 71 % 1020,0 hPa 0,0 l/m² 0 min 0 W/m² 6,4 km/h (2 Bft) 97,87 %
06.03.2026 01:48 9,2 °C 8,3 °C 4,4 °C 71 % 1020,0 hPa 0,0 l/m² 0 min 0 W/m² 16,1 km/h (3 Bft) 97,87 %
06.03.2026 01:50 9,2 °C 8,3 °C 4,4 °C 71 % 1020,0 hPa 0,0 l/m² 0 min 0 W/m² 12,9 km/h (3 Bft) 93,62 %
06.03.2026 01:52 9,2 °C 8,3 °C 4,4 °C 71 % 1020,1 hPa 0,0 l/m² 0 min 0 W/m² 6,4 km/h (2 Bft) 97,87 %
06.03.2026 01:54 9,2 °C 8,3 °C 4,4 °C 71 % 1020,0 hPa 0,0 l/m² 0 min 0 W/m² 3,2 km/h (1 Bft) 97,87 %
06.03.2026 01:56 9,2 °C 8,3 °C 4,4 °C 72 % 1020,1 hPa 0,0 l/m² 0 min 0 W/m² 6,4 km/h (2 Bft) 97,83 %
06.03.2026 01:58 9,2 °C 8,3 °C 4,4 °C 72 % 1020,0 hPa 0,0 l/m² 0 min 0 W/m² 6,4 km/h (2 Bft) 97,87 %
06.03.2026 02:00 9,2 °C 8,3 °C 4,4 °C 72 % 1020,0 hPa 0,0 l/m² 0 min 0 W/m² 12,9 km/h (3 Bft) 95,74 %
06.03.2026 02:02 9,2 °C 8,3 °C 4,4 °C 72 % 1020,0 hPa 0,0 l/m² 0 min 0 W/m² 6,4 km/h (2 Bft) 93,62 %
06.03.2026 02:04 9,1 °C 8,3 °C 4,4 °C 72 % 1020,0 hPa 0,0 l/m² 0 min 0 W/m² 12,9 km/h (3 Bft) 93,62 %
06.03.2026 02:06 9,1 °C 8,3 °C 4,4 °C 72 % 1020,0 hPa 0,0 l/m² 0 min 0 W/m² 12,9 km/h (3 Bft) 94,83 %
06.03.2026 02:08 9,1 °C 8,3 °C 4,4 °C 72 % 1020,0 hPa 0,0 l/m² 0 min 0 W/m² 6,4 km/h (2 Bft) 97,22 %
06.03.2026 02:10 9,1 °C 7,8 °C 4,4 °C 72 % 1020,0 hPa 0,0 l/m² 0 min 0 W/m² 6,4 km/h (2 Bft) 95,74 %
06.03.2026 02:12 9,1 °C 7,8 °C 4,4 °C 72 % 1020,0 hPa 0,0 l/m² 0 min 0 W/m² 6,4 km/h (2 Bft) 95,74 %
06.03.2026 02:14 9,1 °C 7,8 °C 4,4 °C 72 % 1020,0 hPa 0,0 l/m² 0 min 0 W/m² 6,4 km/h (2 Bft) 95,74 %
06.03.2026 02:16 9,1 °C 7,8 °C 4,4 °C 72 % 1020,0 hPa 0,0 l/m² 0 min 0 W/m² 6,4 km/h (2 Bft) 95,74 %
06.03.2026 02:18 9,1 °C 7,8 °C 4,4 °C 72 % 1020,0 hPa 0,0 l/m² 0 min 0 W/m² 6,4 km/h (2 Bft) 93,48 %
06.03.2026 02:20 9,1 °C 7,8 °C 4,4 °C 72 % 1020,0 hPa 0,0 l/m² 0 min 0 W/m² 6,4 km/h (2 Bft) 95,74 %
06.03.2026 02:22 9,1 °C 7,8 °C 4,4 °C 72 % 1019,9 hPa 0,0 l/m² 0 min 0 W/m² 3,2 km/h (1 Bft) 95,74 %
06.03.2026 02:24 9,0 °C 7,8 °C 4,4 °C 73 % 1019,9 hPa 0,0 l/m² 0 min 0 W/m² 12,9 km/h (3 Bft) 95,74 %
06.03.2026 02:26 9,0 °C 7,8 °C 4,4 °C 73 % 1019,9 hPa 0,0 l/m² 0 min 0 W/m² 12,9 km/h (3 Bft) 95,74 %
06.03.2026 02:28 9,0 °C 7,8 °C 4,4 °C 73 % 1019,9 hPa 0,0 l/m² 0 min 0 W/m² 6,4 km/h (2 Bft) 93,62 %
06.03.2026 02:30 8,9 °C 7,8 °C 4,4 °C 73 % 1019,9 hPa 0,0 l/m² 0 min 0 W/m² 12,9 km/h (3 Bft) 97,83 %
06.03.2026 02:32 8,9 °C 7,8 °C 4,4 °C 73 % 1019,9 hPa 0,0 l/m² 0 min 0 W/m² 12,9 km/h (3 Bft) 97,87 %
06.03.2026 02:34 9,0 °C 7,8 °C 4,4 °C 73 % 1019,9 hPa 0,0 l/m² 0 min 0 W/m² 9,7 km/h (2 Bft) 97,87 %
06.03.2026 02:36 8,9 °C 7,8 °C 4,4 °C 73 % 1019,9 hPa 0,0 l/m² 0 min 0 W/m² 12,9 km/h (3 Bft) 95,74 %
06.03.2026 02:38 8,9 °C 7,8 °C 4,4 °C 73 % 1019,9 hPa 0,0 l/m² 0 min 0 W/m² 9,7 km/h (2 Bft) 100,00 %
06.03.2026 02:40 8,9 °C 7,8 °C 4,4 °C 73 % 1019,9 hPa 0,0 l/m² 0 min 0 W/m² 6,4 km/h (2 Bft) 97,87 %
06.03.2026 02:42 8,9 °C 7,8 °C 4,4 °C 73 % 1019,9 hPa 0,0 l/m² 0 min 0 W/m² 3,2 km/h (1 Bft) 97,83 %
06.03.2026 02:44 8,9 °C 7,8 °C 4,4 °C 73 % 1019,9 hPa 0,0 l/m² 0 min 0 W/m² 12,9 km/h (3 Bft) 100,00 %
06.03.2026 02:46 8,9 °C 7,8 °C 4,4 °C 73 % 1020,0 hPa 0,0 l/m² 0 min 0 W/m² 12,9 km/h (3 Bft) 97,87 %
06.03.2026 02:48 8,9 °C 7,8 °C 4,4 °C 73 % 1019,9 hPa 0,0 l/m² 0 min 0 W/m² 6,4 km/h (2 Bft) 100,00 %
06.03.2026 02:50 8,9 °C 7,8 °C 4,4 °C 73 % 1020,0 hPa 0,0 l/m² 0 min 0 W/m² 12,9 km/h (3 Bft) 100,00 %
06.03.2026 02:52 8,9 °C 7,8 °C 4,4 °C 73 % 1020,0 hPa 0,0 l/m² 0 min 0 W/m² 6,4 km/h (2 Bft) 100,00 %
06.03.2026 02:54 8,8 °C 7,8 °C 4,4 °C 73 % 1020,0 hPa 0,0 l/m² 0 min 0 W/m² 9,7 km/h (2 Bft) 100,00 %
06.03.2026 02:56 8,8 °C 7,8 °C 4,4 °C 74 % 1020,0 hPa 0,0 l/m² 0 min 0 W/m² 6,4 km/h (2 Bft) 100,00 %
06.03.2026 02:58 8,8 °C 7,8 °C 4,4 °C 73 % 1020,0 hPa 0,0 l/m² 0 min 0 W/m² 6,4 km/h (2 Bft) 97,87 %
06.03.2026 03:00 8,8 °C 7,8 °C 4,4 °C 74 % 1020,0 hPa 0,0 l/m² 0 min 0 W/m² 6,4 km/h (2 Bft) 100,00 %
06.03.2026 03:02 8,8 °C 7,8 °C 4,4 °C 74 % 1020,0 hPa 0,0 l/m² 0 min 0 W/m² 6,4 km/h (2 Bft) 100,00 %
06.03.2026 03:04 8,8 °C 7,8 °C 4,4 °C 74 % 1020,0 hPa 0,0 l/m² 0 min 0 W/m² 12,9 km/h (3 Bft) 100,00 %
06.03.2026 03:06 8,8 °C 7,8 °C 4,4 °C 74 % 1020,0 hPa 0,0 l/m² 0 min 0 W/m² 12,9 km/h (3 Bft) 100,00 %
06.03.2026 03:08 8,8 °C 7,8 °C 4,4 °C 74 % 1020,0 hPa 0,0 l/m² 0 min 0 W/m² 12,9 km/h (3 Bft) 100,00 %
06.03.2026 03:10 8,8 °C 7,8 °C 4,4 °C 74 % 1020,0 hPa 0,0 l/m² 0 min 0 W/m² 12,9 km/h (3 Bft) 100,00 %
06.03.2026 03:12 8,8 °C 7,8 °C 4,4 °C 74 % 1019,9 hPa 0,0 l/m² 0 min 0 W/m² 16,1 km/h (3 Bft) 100,00 %
06.03.2026 03:14 8,8 °C 7,8 °C 4,4 °C 74 % 1019,9 hPa 0,0 l/m² 0 min 0 W/m² 12,9 km/h (3 Bft) 100,00 %
06.03.2026 03:16 8,8 °C 7,8 °C 4,4 °C 74 % 1019,9 hPa 0,0 l/m² 0 min 0 W/m² 16,1 km/h (3 Bft) 100,00 %
06.03.2026 03:18 8,8 °C 7,8 °C 4,4 °C 74 % 1019,9 hPa 0,0 l/m² 0 min 0 W/m² 19,3 km/h (3 Bft) 100,00 %
06.03.2026 03:20 8,8 °C 7,8 °C 4,4 °C 74 % 1020,0 hPa 0,0 l/m² 0 min 0 W/m² 12,9 km/h (3 Bft) 100,00 %
06.03.2026 03:22 8,8 °C 7,8 °C 4,4 °C 74 % 1019,9 hPa 0,0 l/m² 0 min 0 W/m² 16,1 km/h (3 Bft) 100,00 %
06.03.2026 03:24 8,8 °C 7,8 °C 4,4 °C 74 % 1019,9 hPa 0,0 l/m² 0 min 0 W/m² 19,3 km/h (3 Bft) 97,87 %
06.03.2026 03:26 8,8 °C 7,8 °C 4,4 °C 74 % 1019,9 hPa 0,0 l/m² 0 min 0 W/m² 12,9 km/h (3 Bft) 100,00 %
06.03.2026 03:28 8,8 °C 7,8 °C 4,4 °C 74 % 1019,9 hPa 0,0 l/m² 0 min 0 W/m² 9,7 km/h (2 Bft) 100,00 %
06.03.2026 03:30 8,8 °C 7,8 °C 4,4 °C 74 % 1019,9 hPa 0,0 l/m² 0 min 0 W/m² 12,9 km/h (3 Bft) 100,00 %
06.03.2026 03:32 8,8 °C 7,8 °C 4,4 °C 74 % 1020,0 hPa 0,0 l/m² 0 min 0 W/m² 9,7 km/h (2 Bft) 100,00 %
06.03.2026 03:34 8,8 °C 7,8 °C 4,4 °C 74 % 1020,0 hPa 0,0 l/m² 0 min 0 W/m² 9,7 km/h (2 Bft) 97,92 %
06.03.2026 03:36 8,8 °C 7,8 °C 4,4 °C 74 % 1020,0 hPa 0,0 l/m² 0 min 0 W/m² 12,9 km/h (3 Bft) 97,87 %
06.03.2026 03:38 8,8 °C 7,8 °C 4,4 °C 74 % 1020,0 hPa 0,0 l/m² 0 min 0 W/m² 6,4 km/h (2 Bft) 97,87 %
06.03.2026 03:40 8,7 °C 7,8 °C 4,4 °C 74 % 1020,0 hPa 0,0 l/m² 0 min 0 W/m² 16,1 km/h (3 Bft) 100,00 %
06.03.2026 03:42 8,7 °C 7,8 °C 4,4 °C 74 % 1020,1 hPa 0,0 l/m² 0 min 0 W/m² 12,9 km/h (3 Bft) 100,00 %
06.03.2026 03:44 8,7 °C 7,8 °C 4,4 °C 74 % 1020,1 hPa 0,0 l/m² 0 min 0 W/m² 12,9 km/h (3 Bft) 100,00 %
06.03.2026 03:46 8,7 °C 7,8 °C 3,9 °C 74 % 1020,1 hPa 0,0 l/m² 0 min 0 W/m² 6,4 km/h (2 Bft) 100,00 %
06.03.2026 03:48 8,7 °C 7,8 °C 3,9 °C 74 % 1020,0 hPa 0,0 l/m² 0 min 0 W/m² 12,9 km/h (3 Bft) 97,87 %
06.03.2026 03:50 8,7 °C 7,8 °C 3,9 °C 74 % 1020,0 hPa 0,0 l/m² 0 min 0 W/m² 6,4 km/h (2 Bft) 100,00 %
06.03.2026 03:52 8,7 °C 7,8 °C 3,9 °C 74 % 1020,1 hPa 0,0 l/m² 0 min 0 W/m² 6,4 km/h (2 Bft) 97,83 %
06.03.2026 03:54 8,7 °C 7,8 °C 3,9 °C 74 % 1020,1 hPa 0,0 l/m² 0 min 0 W/m² 6,4 km/h (2 Bft) 97,87 %
06.03.2026 03:56 8,6 °C 7,8 °C 3,9 °C 74 % 1020,0 hPa 0,0 l/m² 0 min 0 W/m² 6,4 km/h (2 Bft) 97,87 %
06.03.2026 03:58 8,6 °C 7,2 °C 3,9 °C 74 % 1020,0 hPa 0,0 l/m² 0 min 0 W/m² 6,4 km/h (2 Bft) 97,87 %
06.03.2026 04:00 8,6 °C 7,2 °C 3,9 °C 74 % 1020,1 hPa 0,0 l/m² 0 min 0 W/m² 3,2 km/h (1 Bft) 97,87 %
06.03.2026 04:02 8,6 °C 7,2 °C 3,9 °C 75 % 1020,0 hPa 0,0 l/m² 0 min 0 W/m² 3,2 km/h (1 Bft) 95,65 %
06.03.2026 04:04 8,6 °C 7,2 °C 3,9 °C 75 % 1020,1 hPa 0,0 l/m² 0 min 0 W/m² 6,4 km/h (2 Bft) 97,83 %
06.03.2026 04:06 8,6 °C 7,2 °C 3,9 °C 75 % 1020,1 hPa 0,0 l/m² 0 min 0 W/m² 3,2 km/h (1 Bft) 95,92 %
06.03.2026 04:08 8,5 °C 7,2 °C 3,9 °C 75 % 1020,0 hPa 0,0 l/m² 0 min 0 W/m² 3,2 km/h (1 Bft) 97,62 %
06.03.2026 04:10 8,5 °C 7,2 °C 3,9 °C 75 % 1020,0 hPa 0,0 l/m² 0 min 0 W/m² 6,4 km/h (2 Bft) 94,00 %
06.03.2026 04:15 8,4 °C 7,2 °C 3,9 °C 75 % 1020,0 hPa 0,0 l/m² 0 min 0 W/m² 6,4 km/h (2 Bft) 97,06 %
06.03.2026 04:16 8,4 °C 7,2 °C 3,3 °C 75 % 1020,0 hPa 0,0 l/m² 0 min 0 W/m² 3,2 km/h (1 Bft) 91,67 %
06.03.2026 04:18 8,4 °C 7,2 °C 3,3 °C 75 % 1020,0 hPa 0,0 l/m² 0 min 0 W/m² 3,2 km/h (1 Bft) 93,62 %
06.03.2026 04:20 8,4 °C 7,2 °C 3,9 °C 75 % 1020,0 hPa 0,0 l/m² 0 min 0 W/m² 6,4 km/h (2 Bft) 95,74 %
06.03.2026 04:22 8,3 °C 7,2 °C 3,3 °C 75 % 1020,0 hPa 0,0 l/m² 0 min 0 W/m² 3,2 km/h (1 Bft) 95,74 %
06.03.2026 04:24 8,3 °C 7,2 °C 3,3 °C 75 % 1020,0 hPa 0,0 l/m² 0 min 0 W/m² 6,4 km/h (2 Bft) 95,74 %
06.03.2026 04:26 8,3 °C 7,2 °C 3,3 °C 75 % 1020,0 hPa 0,0 l/m² 0 min 0 W/m² 3,2 km/h (1 Bft) 93,48 %
06.03.2026 04:28 8,3 °C 7,2 °C 3,3 °C 76 % 1020,1 hPa 0,0 l/m² 0 min 0 W/m² 3,2 km/h (1 Bft) 93,62 %
06.03.2026 04:30 8,3 °C 7,2 °C 3,3 °C 76 % 1020,1 hPa 0,0 l/m² 0 min 0 W/m² 6,4 km/h (2 Bft) 95,74 %
06.03.2026 04:32 8,3 °C 7,2 °C 3,3 °C 76 % 1020,1 hPa 0,0 l/m² 0 min 0 W/m² 3,2 km/h (1 Bft) 95,74 %
06.03.2026 04:34 8,2 °C 7,2 °C 3,3 °C 76 % 1020,1 hPa 0,0 l/m² 0 min 0 W/m² 3,2 km/h (1 Bft) 95,74 %
06.03.2026 04:36 8,2 °C 7,2 °C 3,3 °C 76 % 1020,1 hPa 0,0 l/m² 0 min 0 W/m² 6,4 km/h (2 Bft) 95,74 %
06.03.2026 04:38 8,2 °C 7,2 °C 3,3 °C 76 % 1020,1 hPa 0,0 l/m² 0 min 0 W/m² 3,2 km/h (1 Bft) 95,65 %
06.03.2026 04:40 8,2 °C 7,2 °C 3,3 °C 76 % 1020,1 hPa 0,0 l/m² 0 min 0 W/m² 6,4 km/h (2 Bft) 95,74 %
06.03.2026 04:42 8,2 °C 7,2 °C 3,3 °C 76 % 1020,1 hPa 0,0 l/m² 0 min 0 W/m² 3,2 km/h (1 Bft) 93,62 %
06.03.2026 04:44 8,2 °C 7,2 °C 3,3 °C 76 % 1020,1 hPa 0,0 l/m² 0 min 0 W/m² 6,4 km/h (2 Bft) 93,62 %
06.03.2026 04:46 8,1 °C 7,2 °C 3,3 °C 76 % 1020,1 hPa 0,0 l/m² 0 min 0 W/m² 6,4 km/h (2 Bft) 95,74 %
06.03.2026 04:48 8,1 °C 7,2 °C 3,3 °C 76 % 1020,1 hPa 0,0 l/m² 0 min 0 W/m² 3,2 km/h (1 Bft) 95,74 %
06.03.2026 04:50 8,1 °C 7,2 °C 3,3 °C 76 % 1020,2 hPa 0,0 l/m² 0 min 0 W/m² 6,4 km/h (2 Bft) 97,83 %
06.03.2026 04:52 8,1 °C 7,2 °C 3,9 °C 77 % 1020,2 hPa 0,0 l/m² 0 min 0 W/m² 12,9 km/h (3 Bft) 97,87 %
06.03.2026 04:54 8,1 °C 7,2 °C 3,9 °C 77 % 1020,2 hPa 0,0 l/m² 0 min 0 W/m² 6,4 km/h (2 Bft) 97,87 %
06.03.2026 04:56 8,1 °C 7,2 °C 3,9 °C 77 % 1020,2 hPa 0,0 l/m² 0 min 0 W/m² 6,4 km/h (2 Bft) 97,87 %
06.03.2026 04:58 8,1 °C 7,2 °C 3,9 °C 77 % 1020,1 hPa 0,0 l/m² 0 min 0 W/m² 12,9 km/h (3 Bft) 100,00 %
06.03.2026 05:00 8,1 °C 7,2 °C 3,9 °C 77 % 1020,1 hPa 0,0 l/m² 0 min 0 W/m² 12,9 km/h (3 Bft) 100,00 %
06.03.2026 05:02 8,1 °C 7,2 °C 3,9 °C 77 % 1020,2 hPa 0,0 l/m² 0 min 0 W/m² 6,4 km/h (2 Bft) 100,00 %
06.03.2026 05:04 8,1 °C 7,2 °C 3,9 °C 77 % 1020,2 hPa 0,0 l/m² 0 min 0 W/m² 6,4 km/h (2 Bft) 100,00 %
06.03.2026 05:06 8,1 °C 7,2 °C 3,3 °C 77 % 1020,2 hPa 0,0 l/m² 0 min 0 W/m² 3,2 km/h (1 Bft) 97,87 %
06.03.2026 05:08 8,1 °C 7,2 °C 3,3 °C 77 % 1020,2 hPa 0,0 l/m² 0 min 0 W/m² 6,4 km/h (2 Bft) 100,00 %
06.03.2026 05:10 8,1 °C 7,2 °C 3,3 °C 77 % 1020,2 hPa 0,0 l/m² 0 min 0 W/m² 12,9 km/h (3 Bft) 100,00 %
06.03.2026 05:12 8,1 °C 7,2 °C 3,3 °C 77 % 1020,2 hPa 0,0 l/m² 0 min 0 W/m² 6,4 km/h (2 Bft) 100,00 %
06.03.2026 05:14 8,1 °C 7,2 °C 3,3 °C 77 % 1020,2 hPa 0,0 l/m² 0 min 0 W/m² 12,9 km/h (3 Bft) 100,00 %
06.03.2026 05:16 8,1 °C 7,2 °C 3,3 °C 77 % 1020,1 hPa 0,0 l/m² 0 min 0 W/m² 3,2 km/h (1 Bft) 45,95 %
06.03.2026 05:18 8,1 °C 7,2 °C 3,3 °C 77 % 1020,1 hPa 0,0 l/m² 0 min 0 W/m² 6,4 km/h (2 Bft) 100,00 %
06.03.2026 05:20 8,1 °C 7,2 °C 3,3 °C 77 % 1020,1 hPa 0,0 l/m² 0 min 0 W/m² 6,4 km/h (2 Bft) 93,86 %
06.03.2026 05:26 8,1 °C 7,2 °C 3,3 °C 77 % 1020,1 hPa 0,0 l/m² 0 min 0 W/m² 12,9 km/h (3 Bft) 100,00 %
06.03.2026 05:28 8,1 °C 7,2 °C 3,3 °C 77 % 1020,1 hPa 0,0 l/m² 0 min 0 W/m² 12,9 km/h (3 Bft) 100,00 %
06.03.2026 05:30 8,1 °C 7,2 °C 3,9 °C 77 % 1020,1 hPa 0,0 l/m² 0 min 0 W/m² 6,4 km/h (2 Bft) 100,00 %
06.03.2026 05:32 8,1 °C 7,2 °C 3,3 °C 77 % 1020,1 hPa 0,0 l/m² 0 min 0 W/m² 6,4 km/h (2 Bft) 100,00 %
06.03.2026 05:34 8,1 °C 7,2 °C 3,3 °C 77 % 1020,1 hPa 0,0 l/m² 0 min 0 W/m² 6,4 km/h (2 Bft) 100,00 %
06.03.2026 05:36 8,1 °C 7,2 °C 3,3 °C 77 % 1020,1 hPa 0,0 l/m² 0 min 0 W/m² 9,7 km/h (2 Bft) 100,00 %
06.03.2026 05:38 8,1 °C 7,2 °C 3,3 °C 77 % 1020,2 hPa 0,0 l/m² 0 min 0 W/m² 6,4 km/h (2 Bft) 97,87 %
06.03.2026 05:40 8,1 °C 7,2 °C 3,3 °C 77 % 1020,2 hPa 0,0 l/m² 0 min 0 W/m² 6,4 km/h (2 Bft) 97,87 %
06.03.2026 05:42 8,1 °C 7,2 °C 3,3 °C 77 % 1020,2 hPa 0,0 l/m² 0 min 0 W/m² 6,4 km/h (2 Bft) 97,87 %
06.03.2026 05:44 8,1 °C 7,2 °C 3,3 °C 77 % 1020,2 hPa 0,0 l/m² 0 min 0 W/m² 3,2 km/h (1 Bft) 97,83 %
06.03.2026 05:46 8,1 °C 7,2 °C 3,3 °C 77 % 1020,3 hPa 0,0 l/m² 0 min 0 W/m² 6,4 km/h (2 Bft) 97,87 %
06.03.2026 05:48 8,1 °C 7,2 °C 3,3 °C 77 % 1020,2 hPa 0,0 l/m² 0 min 0 W/m² 6,4 km/h (2 Bft) 95,74 %
06.03.2026 05:50 8,1 °C 7,2 °C 3,9 °C 77 % 1020,2 hPa 0,0 l/m² 0 min 0 W/m² 6,4 km/h (2 Bft) 97,87 %
06.03.2026 05:52 8,1 °C 7,2 °C 3,9 °C 77 % 1020,2 hPa 0,0 l/m² 0 min 0 W/m² 6,4 km/h (2 Bft) 95,74 %
06.03.2026 05:54 8,1 °C 7,2 °C 3,9 °C 77 % 1020,2 hPa 0,0 l/m² 0 min 0 W/m² 12,9 km/h (3 Bft) 95,74 %
06.03.2026 05:56 8,1 °C 7,2 °C 3,9 °C 77 % 1020,3 hPa 0,0 l/m² 0 min 0 W/m² 12,9 km/h (3 Bft) 97,83 %
06.03.2026 05:58 8,1 °C 7,2 °C 3,9 °C 77 % 1020,3 hPa 0,0 l/m² 0 min 0 W/m² 12,9 km/h (3 Bft) 97,87 %
06.03.2026 06:00 8,1 °C 7,2 °C 3,9 °C 77 % 1020,3 hPa 0,0 l/m² 0 min 0 W/m² 12,9 km/h (3 Bft) 97,87 %
06.03.2026 06:02 8,1 °C 7,2 °C 3,9 °C 77 % 1020,3 hPa 0,0 l/m² 0 min 0 W/m² 9,7 km/h (2 Bft) 95,74 %
06.03.2026 06:04 8,1 °C 7,2 °C 3,9 °C 77 % 1020,3 hPa 0,0 l/m² 0 min 0 W/m² 6,4 km/h (2 Bft) 98,08 %
06.03.2026 06:07 8,1 °C 7,2 °C 3,3 °C 77 % 1020,3 hPa 0,0 l/m² 0 min 0 W/m² 6,4 km/h (2 Bft) 98,08 %
06.03.2026 06:08 8,1 °C 7,2 °C 3,3 °C 77 % 1020,3 hPa 0,0 l/m² 0 min 0 W/m² 6,4 km/h (2 Bft) 98,08 %
06.03.2026 06:10 8,1 °C 7,2 °C 3,3 °C 77 % 1020,4 hPa 0,0 l/m² 0 min 0 W/m² 9,7 km/h (2 Bft) 99,30 %
06.03.2026 06:14 8,1 °C 7,2 °C 3,3 °C 77 % 1020,4 hPa 0,0 l/m² 0 min 0 W/m² 6,4 km/h (2 Bft) 100,00 %
06.03.2026 06:16 8,1 °C 7,2 °C 3,3 °C 77 % 1020,4 hPa 0,0 l/m² 0 min 0 W/m² 3,2 km/h (1 Bft) 100,00 %
06.03.2026 06:18 8,1 °C 7,2 °C 3,3 °C 77 % 1020,4 hPa 0,0 l/m² 0 min 0 W/m² 3,2 km/h (1 Bft) 100,00 %
06.03.2026 06:20 8,1 °C 7,2 °C 3,3 °C 77 % 1020,4 hPa 0,0 l/m² 0 min 0 W/m² 3,2 km/h (1 Bft) 97,87 %
06.03.2026 06:22 8,1 °C 7,2 °C 3,3 °C 77 % 1020,4 hPa 0,0 l/m² 0 min 0 W/m² 3,2 km/h (1 Bft) 100,00 %
06.03.2026 06:24 8,1 °C 7,2 °C 3,3 °C 77 % 1020,4 hPa 0,0 l/m² 0 min 0 W/m² 3,2 km/h (1 Bft) 100,00 %
06.03.2026 06:26 8,1 °C 7,2 °C 3,3 °C 77 % 1020,5 hPa 0,0 l/m² 0 min 0 W/m² 3,2 km/h (1 Bft) 97,87 %
06.03.2026 06:28 8,1 °C 7,2 °C 3,3 °C 77 % 1020,4 hPa 0,0 l/m² 0 min 0 W/m² 3,2 km/h (1 Bft) 100,00 %
06.03.2026 06:30 8,1 °C 7,2 °C 3,3 °C 77 % 1020,4 hPa 0,0 l/m² 0 min 0 W/m² 6,4 km/h (2 Bft) 97,87 %
06.03.2026 06:35 8,0 °C 6,7 °C 3,3 °C 77 % 1020,4 hPa 0,0 l/m² 0 min 0 W/m² 6,4 km/h (2 Bft) 99,12 %
06.03.2026 06:40 7,9 °C 6,7 °C 3,3 °C 77 % 1020,5 hPa 0,0 l/m² 0 min 0 W/m² 3,2 km/h (1 Bft) 99,12 %
06.03.2026 06:45 7,9 °C 6,7 °C 2,8 °C 77 % 1020,6 hPa 0,0 l/m² 0 min 0 W/m² 3,2 km/h (1 Bft) 98,25 %
06.03.2026 06:50 7,8 °C 6,1 °C 2,8 °C 77 % 1020,6 hPa 0,0 l/m² 0 min 0 W/m² 3,2 km/h (1 Bft) 100,00 %
06.03.2026 06:55 7,8 °C 6,1 °C 2,2 °C 77 % 1020,6 hPa 0,0 l/m² 0 min 0 W/m² 3,2 km/h (1 Bft) 100,00 %
06.03.2026 07:00 7,7 °C 6,1 °C 2,2 °C 78 % 1020,6 hPa 0,0 l/m² 0 min 0 W/m² 0,0 km/h (0 Bft) 100,00 %
06.03.2026 07:05 7,7 °C 6,1 °C 2,2 °C 78 % 1020,6 hPa 0,0 l/m² 0 min 0 W/m² 0,0 km/h (0 Bft) 100,00 %
06.03.2026 07:10 7,6 °C 6,1 °C 2,2 °C 78 % 1020,7 hPa 0,0 l/m² 0 min 5 W/m² 0,0 km/h (0 Bft) 98,25 %
06.03.2026 07:15 7,6 °C 5,6 °C 2,2 °C 78 % 1020,6 hPa 0,0 l/m² 0 min 6 W/m² 0,0 km/h (0 Bft) 99,12 %
06.03.2026 07:20 7,4 °C 6,1 °C 2,2 °C 78 % 1020,6 hPa 0,0 l/m² 0 min 8 W/m² 3,2 km/h (1 Bft) 99,12 %
06.03.2026 07:25 7,4 °C 6,1 °C 2,8 °C 79 % 1020,7 hPa 0,0 l/m² 0 min 10 W/m² 3,2 km/h (1 Bft) 100,00 %
06.03.2026 07:28 7,4 °C 6,7 °C 2,8 °C 79 % 1020,8 hPa 0,0 l/m² 0 min 11 W/m² 3,2 km/h (1 Bft) 100,00 %
06.03.2026 07:30 7,3 °C 6,7 °C 2,8 °C 79 % 1020,7 hPa 0,0 l/m² 0 min 13 W/m² 3,2 km/h (1 Bft) 94,29 %
06.03.2026 07:32 7,3 °C 6,7 °C 2,8 °C 79 % 1020,8 hPa 0,0 l/m² 0 min 15 W/m² 3,2 km/h (1 Bft) 96,36 %
06.03.2026 07:34 7,3 °C 6,7 °C 2,8 °C 79 % 1020,8 hPa 0,0 l/m² 0 min 18 W/m² 3,2 km/h (1 Bft) 95,74 %
06.03.2026 07:36 7,3 °C 6,7 °C 2,8 °C 80 % 1020,8 hPa 0,0 l/m² 0 min 19 W/m² 3,2 km/h (1 Bft) 94,00 %
06.03.2026 07:38 7,3 °C 6,7 °C 2,8 °C 80 % 1020,8 hPa 0,0 l/m² 0 min 20 W/m² 3,2 km/h (1 Bft) 97,30 %
06.03.2026 07:40 7,3 °C 6,7 °C 2,8 °C 80 % 1020,8 hPa 0,0 l/m² 0 min 21 W/m² 3,2 km/h (1 Bft) 93,62 %
06.03.2026 07:42 7,3 °C 6,7 °C 2,8 °C 80 % 1020,8 hPa 0,0 l/m² 0 min 21 W/m² 3,2 km/h (1 Bft) 95,65 %
06.03.2026 07:44 7,3 °C 6,7 °C 3,3 °C 80 % 1020,8 hPa 0,0 l/m² 0 min 23 W/m² 6,4 km/h (2 Bft) 96,30 %
06.03.2026 07:46 7,3 °C 7,2 °C 3,3 °C 80 % 1020,8 hPa 0,0 l/m² 0 min 23 W/m² 3,2 km/h (1 Bft) 95,74 %
06.03.2026 07:48 7,3 °C 7,2 °C 3,3 °C 80 % 1020,9 hPa 0,0 l/m² 0 min 25 W/m² 3,2 km/h (1 Bft) 95,74 %
06.03.2026 07:50 7,4 °C 7,2 °C 3,3 °C 80 % 1020,9 hPa 0,0 l/m² 0 min 27 W/m² 6,4 km/h (2 Bft) 93,88 %
06.03.2026 07:52 7,4 °C 7,2 °C 3,3 °C 80 % 1020,9 hPa 0,0 l/m² 0 min 30 W/m² 3,2 km/h (1 Bft) 94,74 %
06.03.2026 07:54 7,4 °C 7,2 °C 3,3 °C 80 % 1020,9 hPa 0,0 l/m² 0 min 33 W/m² 3,2 km/h (1 Bft) 95,92 %
06.03.2026 07:56 7,4 °C 7,2 °C 3,3 °C 80 % 1020,9 hPa 0,0 l/m² 0 min 36 W/m² 0,0 km/h (0 Bft) 95,74 %
06.03.2026 07:58 7,4 °C 7,2 °C 3,3 °C 80 % 1020,9 hPa 0,0 l/m² 0 min 39 W/m² 0,0 km/h (0 Bft) 97,87 %
06.03.2026 08:00 7,4 °C 7,2 °C 3,3 °C 80 % 1020,9 hPa 0,0 l/m² 0 min 41 W/m² 6,4 km/h (2 Bft) 97,87 %
06.03.2026 08:02 7,4 °C 7,2 °C 3,3 °C 80 % 1021,0 hPa 0,0 l/m² 0 min 43 W/m² 6,4 km/h (2 Bft) 100,00 %
06.03.2026 08:04 7,5 °C 7,2 °C 3,3 °C 80 % 1020,9 hPa 0,0 l/m² 0 min 45 W/m² 3,2 km/h (1 Bft) 100,00 %
06.03.2026 08:06 7,5 °C 7,8 °C 3,3 °C 80 % 1021,0 hPa 0,0 l/m² 0 min 47 W/m² 6,4 km/h (2 Bft) 98,31 %
06.03.2026 08:08 7,5 °C 7,8 °C 3,3 °C 80 % 1021,0 hPa 0,0 l/m² 0 min 49 W/m² 6,4 km/h (2 Bft) 100,00 %
06.03.2026 08:10 7,6 °C 7,8 °C 3,9 °C 80 % 1021,0 hPa 0,0 l/m² 0 min 50 W/m² 6,4 km/h (2 Bft) 100,00 %
06.03.2026 08:12 7,6 °C 7,8 °C 3,9 °C 80 % 1021,0 hPa 0,0 l/m² 0 min 53 W/m² 12,9 km/h (3 Bft) 100,00 %
06.03.2026 08:14 7,6 °C 7,8 °C 3,9 °C 80 % 1021,0 hPa 0,0 l/m² 0 min 54 W/m² 6,4 km/h (2 Bft) 100,00 %
06.03.2026 08:16 7,7 °C 7,8 °C 3,9 °C 80 % 1021,1 hPa 0,0 l/m² 0 min 55 W/m² 6,4 km/h (2 Bft) 100,00 %
06.03.2026 08:18 7,7 °C 7,8 °C 3,9 °C 80 % 1021,1 hPa 0,0 l/m² 0 min 58 W/m² 6,4 km/h (2 Bft) 97,87 %
06.03.2026 08:20 7,7 °C 7,8 °C 3,9 °C 80 % 1021,1 hPa 0,0 l/m² 0 min 61 W/m² 3,2 km/h (1 Bft) 97,87 %
06.03.2026 08:22 7,8 °C 8,3 °C 3,9 °C 80 % 1021,1 hPa 0,0 l/m² 0 min 63 W/m² 6,4 km/h (2 Bft) 100,00 %
06.03.2026 08:24 7,8 °C 8,3 °C 3,9 °C 80 % 1021,1 hPa 0,0 l/m² 0 min 65 W/m² 12,9 km/h (3 Bft) 100,00 %
06.03.2026 08:26 7,9 °C 8,3 °C 3,9 °C 80 % 1021,1 hPa 0,0 l/m² 0 min 68 W/m² 6,4 km/h (2 Bft) 100,00 %
06.03.2026 08:28 7,9 °C 8,3 °C 4,4 °C 80 % 1021,1 hPa 0,0 l/m² 0 min 70 W/m² 6,4 km/h (2 Bft) 100,00 %
06.03.2026 08:30 8,0 °C 8,3 °C 4,4 °C 79 % 1021,2 hPa 0,0 l/m² 0 min 72 W/m² 12,9 km/h (3 Bft) 100,00 %
06.03.2026 08:32 8,1 °C 8,3 °C 4,4 °C 79 % 1021,2 hPa 0,0 l/m² 0 min 74 W/m² 6,4 km/h (2 Bft) 100,00 %
06.03.2026 08:34 8,1 °C 8,3 °C 4,4 °C 79 % 1021,2 hPa 0,0 l/m² 0 min 76 W/m² 6,4 km/h (2 Bft) 100,00 %
06.03.2026 08:36 8,1 °C 8,9 °C 4,4 °C 79 % 1021,2 hPa 0,0 l/m² 0 min 78 W/m² 12,9 km/h (3 Bft) 100,00 %
06.03.2026 08:38 8,2 °C 8,9 °C 4,4 °C 79 % 1021,2 hPa 0,0 l/m² 0 min 80 W/m² 6,4 km/h (2 Bft) 100,00 %
06.03.2026 08:40 8,3 °C 8,9 °C 4,4 °C 79 % 1021,3 hPa 0,0 l/m² 0 min 83 W/m² 6,4 km/h (2 Bft) 100,00 %
06.03.2026 08:42 8,3 °C 8,9 °C 4,4 °C 79 % 1021,2 hPa 0,0 l/m² 0 min 85 W/m² 6,4 km/h (2 Bft) 100,00 %
06.03.2026 08:44 8,4 °C 8,9 °C 4,4 °C 79 % 1021,2 hPa 0,0 l/m² 0 min 87 W/m² 6,4 km/h (2 Bft) 100,00 %
06.03.2026 08:46 8,4 °C 9,4 °C 5,0 °C 79 % 1021,2 hPa 0,0 l/m² 0 min 99 W/m² 12,9 km/h (3 Bft) 97,87 %
06.03.2026 08:48 8,5 °C 9,4 °C 5,0 °C 79 % 1021,3 hPa 0,0 l/m² 2 min 126 W/m² 6,4 km/h (2 Bft) 97,87 %
06.03.2026 08:50 8,6 °C 9,4 °C 5,0 °C 78 % 1021,3 hPa 0,0 l/m² 2 min 133 W/m² 12,9 km/h (3 Bft) 100,00 %
06.03.2026 08:52 8,7 °C 9,4 °C 5,0 °C 78 % 1021,3 hPa 0,0 l/m² 2 min 133 W/m² 9,7 km/h (2 Bft) 100,00 %
06.03.2026 08:54 8,7 °C 10,0 °C 5,0 °C 78 % 1021,3 hPa 0,0 l/m² 2 min 139 W/m² 16,1 km/h (3 Bft) 100,00 %
06.03.2026 08:56 8,8 °C 10,6 °C 5,0 °C 78 % 1021,3 hPa 0,0 l/m² 2 min 135 W/m² 9,7 km/h (2 Bft) 97,14 %
06.03.2026 08:58 8,9 °C 11,1 °C 5,6 °C 78 % 1021,3 hPa 0,0 l/m² 2 min 133 W/m² 12,9 km/h (3 Bft) 100,00 %
06.03.2026 09:00 9,1 °C 11,1 °C 5,6 °C 78 % 1021,3 hPa 0,0 l/m² 2 min 150 W/m² 9,7 km/h (2 Bft) 97,14 %
06.03.2026 09:02 9,2 °C 11,7 °C 5,6 °C 77 % 1021,3 hPa 0,0 l/m² 2 min 153 W/m² 16,1 km/h (3 Bft) 98,28 %
06.03.2026 09:05 9,3 °C 11,7 °C 5,6 °C 76 % 1021,3 hPa 0,0 l/m² 3 min 145 W/m² 16,1 km/h (3 Bft) 100,00 %
06.03.2026 09:11 9,7 °C 11,1 °C 5,6 °C 75 % 1021,4 hPa 0,0 l/m² 5 min 173 W/m² 19,3 km/h (3 Bft) 97,06 %
06.03.2026 09:14 9,9 °C 11,7 °C 6,1 °C 74 % 1021,4 hPa 0,0 l/m² 3 min 178 W/m² 16,1 km/h (3 Bft) 98,46 %
06.03.2026 09:16 10,0 °C 11,1 °C 6,1 °C 74 % 1021,4 hPa 0,0 l/m² 2 min 181 W/m² 16,1 km/h (3 Bft) 97,87 %
06.03.2026 09:18 10,1 °C 11,7 °C 6,1 °C 74 % 1021,5 hPa 0,0 l/m² 2 min 184 W/m² 9,7 km/h (2 Bft) 74,47 %
06.03.2026 09:20 10,2 °C 11,7 °C 6,1 °C 73 % 1021,5 hPa 0,0 l/m² 2 min 166 W/m² 9,7 km/h (2 Bft) 71,88 %
06.03.2026 09:22 10,3 °C 11,7 °C 6,1 °C 73 % 1021,5 hPa 0,0 l/m² 2 min 169 W/m² 16,1 km/h (3 Bft) 93,62 %
06.03.2026 09:24 10,4 °C 12,2 °C 6,1 °C 72 % 1021,5 hPa 0,0 l/m² 2 min 170 W/m² 16,1 km/h (3 Bft) 95,74 %
06.03.2026 09:26 10,5 °C 11,7 °C 6,7 °C 72 % 1021,6 hPa 0,0 l/m² 2 min 184 W/m² 16,1 km/h (3 Bft) 95,74 %
06.03.2026 09:28 10,6 °C 12,2 °C 6,7 °C 72 % 1021,6 hPa 0,0 l/m² 2 min 198 W/m² 9,7 km/h (2 Bft) 94,00 %
06.03.2026 09:30 10,7 °C 12,2 °C 6,7 °C 72 % 1021,7 hPa 0,0 l/m² 2 min 218 W/m² 16,1 km/h (3 Bft) 95,65 %
06.03.2026 09:32 10,7 °C 12,8 °C 6,7 °C 72 % 1021,6 hPa 0,0 l/m² 2 min 219 W/m² 12,9 km/h (3 Bft) 95,83 %
06.03.2026 09:34 10,8 °C 12,8 °C 6,7 °C 72 % 1021,6 hPa 0,0 l/m² 2 min 225 W/m² 16,1 km/h (3 Bft) 95,74 %
06.03.2026 09:36 10,9 °C 12,8 °C 6,7 °C 72 % 1021,6 hPa 0,0 l/m² 2 min 225 W/m² 16,1 km/h (3 Bft) 95,74 %
06.03.2026 09:38 11,0 °C 12,8 °C 6,7 °C 71 % 1021,6 hPa 0,0 l/m² 2 min 197 W/m² 22,5 km/h (4 Bft) 95,74 %
06.03.2026 09:40 11,1 °C 13,3 °C 7,2 °C 71 % 1021,6 hPa 0,0 l/m² 2 min 212 W/m² 16,1 km/h (3 Bft) 95,74 %
06.03.2026 09:42 11,2 °C 13,9 °C 7,2 °C 71 % 1021,6 hPa 0,0 l/m² 2 min 199 W/m² 12,9 km/h (3 Bft) 95,65 %
06.03.2026 09:44 11,2 °C 13,9 °C 7,2 °C 71 % 1021,6 hPa 0,0 l/m² 2 min 240 W/m² 6,4 km/h (2 Bft) 95,74 %
06.03.2026 09:46 11,3 °C 14,4 °C 7,2 °C 71 % 1021,6 hPa 0,0 l/m² 2 min 192 W/m² 12,9 km/h (3 Bft) 91,49 %
06.03.2026 09:48 11,4 °C 13,9 °C 7,2 °C 71 % 1021,5 hPa 0,0 l/m² 0 min 171 W/m² 12,9 km/h (3 Bft) 95,74 %
06.03.2026 09:50 11,4 °C 13,9 °C 7,2 °C 70 % 1021,6 hPa 0,0 l/m² 0 min 165 W/m² 19,3 km/h (3 Bft) 93,62 %
06.03.2026 09:52 11,6 °C 13,9 °C 7,2 °C 70 % 1021,6 hPa 0,0 l/m² 2 min 213 W/m² 12,9 km/h (3 Bft) 93,62 %
06.03.2026 09:54 11,6 °C 14,4 °C 7,8 °C 70 % 1021,6 hPa 0,0 l/m² 2 min 240 W/m² 12,9 km/h (3 Bft) 93,48 %
06.03.2026 09:56 11,7 °C 14,4 °C 7,8 °C 69 % 1021,6 hPa 0,0 l/m² 2 min 240 W/m² 12,9 km/h (3 Bft) 93,62 %
06.03.2026 09:58 11,8 °C 14,4 °C 7,8 °C 69 % 1021,7 hPa 0,0 l/m² 2 min 216 W/m² 6,4 km/h (2 Bft) 91,49 %
06.03.2026 10:00 11,8 °C 13,9 °C 7,8 °C 69 % 1021,7 hPa 0,0 l/m² 2 min 261 W/m² 12,9 km/h (3 Bft) 95,74 %
06.03.2026 10:02 11,9 °C 14,4 °C 7,8 °C 69 % 1021,7 hPa 0,0 l/m² 2 min 249 W/m² 16,1 km/h (3 Bft) 95,74 %
06.03.2026 10:04 12,1 °C 15,0 °C 7,8 °C 68 % 1021,7 hPa 0,0 l/m² 2 min 280 W/m² 16,1 km/h (3 Bft) 97,62 %
06.03.2026 10:06 12,1 °C 15,0 °C 8,3 °C 68 % 1021,7 hPa 0,0 l/m² 2 min 287 W/m² 12,9 km/h (3 Bft) 98,53 %
06.03.2026 10:08 12,2 °C 15,6 °C 8,3 °C 68 % 1021,8 hPa 0,0 l/m² 2 min 294 W/m² 16,1 km/h (3 Bft) 88,46 %
06.03.2026 10:10 12,3 °C 15,0 °C 8,3 °C 68 % 1021,8 hPa 0,0 l/m² 2 min 270 W/m² 16,1 km/h (3 Bft) 95,74 %
06.03.2026 10:12 12,3 °C 15,0 °C 8,9 °C 68 % 1021,8 hPa 0,0 l/m² 2 min 232 W/m² 16,1 km/h (3 Bft) 95,74 %
06.03.2026 10:14 12,4 °C 15,6 °C 8,9 °C 67 % 1021,7 hPa 0,0 l/m² 2 min 244 W/m² 9,7 km/h (2 Bft) 95,65 %
06.03.2026 10:16 12,6 °C 15,6 °C 8,9 °C 67 % 1021,8 hPa 0,0 l/m² 2 min 284 W/m² 12,9 km/h (3 Bft) 93,62 %
06.03.2026 10:18 12,6 °C 15,6 °C 8,9 °C 67 % 1021,9 hPa 0,0 l/m² 2 min 233 W/m² 12,9 km/h (3 Bft) 95,74 %
06.03.2026 10:20 12,7 °C 15,6 °C 9,4 °C 66 % 1021,8 hPa 0,0 l/m² 2 min 234 W/m² 12,9 km/h (3 Bft) 95,74 %
06.03.2026 10:22 12,8 °C 15,6 °C 8,9 °C 66 % 1021,8 hPa 0,0 l/m² 2 min 221 W/m² 16,1 km/h (3 Bft) 97,87 %
06.03.2026 10:24 12,8 °C 16,1 °C 9,4 °C 66 % 1021,7 hPa 0,0 l/m² 2 min 272 W/m² 12,9 km/h (3 Bft) 95,65 %
06.03.2026 10:26 12,9 °C 16,7 °C 9,4 °C 66 % 1021,7 hPa 0,0 l/m² 2 min 228 W/m² 16,1 km/h (3 Bft) 97,87 %
06.03.2026 10:28 12,9 °C 16,7 °C 9,4 °C 66 % 1021,8 hPa 0,0 l/m² 2 min 266 W/m² 12,9 km/h (3 Bft) 97,87 %
06.03.2026 10:30 13,1 °C 16,7 °C 10,0 °C 66 % 1021,8 hPa 0,0 l/m² 2 min 297 W/m² 12,9 km/h (3 Bft) 97,87 %
06.03.2026 10:32 13,1 °C 16,7 °C 10,6 °C 66 % 1021,9 hPa 0,0 l/m² 2 min 274 W/m² 12,9 km/h (3 Bft) 95,74 %
06.03.2026 10:34 13,2 °C 17,2 °C 10,6 °C 65 % 1021,9 hPa 0,0 l/m² 2 min 326 W/m² 12,9 km/h (3 Bft) 95,74 %
06.03.2026 10:36 13,3 °C 18,3 °C 11,1 °C 65 % 1021,9 hPa 0,0 l/m² 2 min 349 W/m² 12,9 km/h (3 Bft) 97,83 %
06.03.2026 10:38 13,4 °C 18,3 °C 11,1 °C 65 % 1021,9 hPa 0,0 l/m² 2 min 320 W/m² 16,1 km/h (3 Bft) 100,00 %
06.03.2026 10:40 13,5 °C 18,3 °C 11,1 °C 65 % 1022,0 hPa 0,0 l/m² 2 min 350 W/m² 16,1 km/h (3 Bft) 100,00 %
06.03.2026 10:42 13,6 °C 17,2 °C 11,1 °C 64 % 1022,0 hPa 0,0 l/m² 2 min 293 W/m² 19,3 km/h (3 Bft) 100,00 %
06.03.2026 10:44 13,6 °C 17,2 °C 11,1 °C 64 % 1022,0 hPa 0,0 l/m² 2 min 285 W/m² 16,1 km/h (3 Bft) 100,00 %
06.03.2026 10:46 13,7 °C 17,8 °C 11,7 °C 64 % 1021,9 hPa 0,0 l/m² 2 min 358 W/m² 16,1 km/h (3 Bft) 97,87 %
06.03.2026 10:48 13,8 °C 18,3 °C 12,2 °C 63 % 1021,8 hPa 0,0 l/m² 2 min 386 W/m² 16,1 km/h (3 Bft) 100,00 %
06.03.2026 10:50 13,8 °C 18,9 °C 12,2 °C 63 % 1021,8 hPa 0,0 l/m² 2 min 386 W/m² 9,7 km/h (2 Bft) 100,00 %
06.03.2026 10:52 13,9 °C 18,9 °C 12,2 °C 63 % 1021,8 hPa 0,0 l/m² 2 min 366 W/m² 16,1 km/h (3 Bft) 100,00 %
06.03.2026 10:54 14,0 °C 18,3 °C 11,7 °C 63 % 1021,8 hPa 0,0 l/m² 2 min 366 W/m² 12,9 km/h (3 Bft) 100,00 %
06.03.2026 10:56 14,1 °C 18,3 °C 12,2 °C 63 % 1021,8 hPa 0,0 l/m² 2 min 381 W/m² 16,1 km/h (3 Bft) 97,87 %
06.03.2026 10:58 14,1 °C 17,8 °C 11,7 °C 62 % 1021,7 hPa 0,0 l/m² 2 min 339 W/m² 12,9 km/h (3 Bft) 100,00 %
06.03.2026 11:00 14,1 °C 18,3 °C 12,2 °C 62 % 1021,8 hPa 0,0 l/m² 2 min 393 W/m² 16,1 km/h (3 Bft) 97,83 %
06.03.2026 11:02 14,2 °C 18,3 °C 12,2 °C 62 % 1021,8 hPa 0,0 l/m² 2 min 399 W/m² 12,9 km/h (3 Bft) 97,87 %
06.03.2026 11:04 14,3 °C 18,9 °C 12,2 °C 62 % 1021,8 hPa 0,0 l/m² 2 min 403 W/m² 9,7 km/h (2 Bft) 100,00 %
06.03.2026 11:06 14,3 °C 19,4 °C 13,3 °C 63 % 1021,8 hPa 0,0 l/m² 2 min 438 W/m² 12,9 km/h (3 Bft) 100,00 %
06.03.2026 11:08 14,3 °C 20,0 °C 13,9 °C 63 % 1021,8 hPa 0,0 l/m² 2 min 448 W/m² 9,7 km/h (2 Bft) 100,00 %
06.03.2026 11:10 14,4 °C 20,0 °C 13,9 °C 63 % 1021,9 hPa 0,0 l/m² 2 min 447 W/m² 16,1 km/h (3 Bft) 100,00 %
06.03.2026 11:12 14,5 °C 20,0 °C 13,9 °C 63 % 1021,9 hPa 0,0 l/m² 2 min 436 W/m² 12,9 km/h (3 Bft) 91,30 %
06.03.2026 11:14 14,6 °C 20,6 °C 13,9 °C 63 % 1021,9 hPa 0,0 l/m² 2 min 441 W/m² 16,1 km/h (3 Bft) 100,00 %
06.03.2026 11:16 14,7 °C 20,0 °C 14,4 °C 62 % 1021,9 hPa 0,0 l/m² 2 min 436 W/m² 12,9 km/h (3 Bft) 100,00 %
06.03.2026 11:18 14,8 °C 20,0 °C 14,4 °C 62 % 1021,9 hPa 0,0 l/m² 2 min 410 W/m² 6,4 km/h (2 Bft) 100,00 %
06.03.2026 11:20 14,9 °C 20,6 °C 14,4 °C 62 % 1021,9 hPa 0,0 l/m² 2 min 420 W/m² 19,3 km/h (3 Bft) 97,87 %
06.03.2026 11:22 14,9 °C 20,6 °C 14,4 °C 61 % 1021,9 hPa 0,0 l/m² 2 min 424 W/m² 16,1 km/h (3 Bft) 100,00 %
06.03.2026 11:24 15,0 °C 20,6 °C 14,4 °C 61 % 1021,9 hPa 0,0 l/m² 2 min 427 W/m² 12,9 km/h (3 Bft) 100,00 %
06.03.2026 11:26 15,1 °C 21,1 °C 14,4 °C 61 % 1021,9 hPa 0,0 l/m² 2 min 452 W/m² 16,1 km/h (3 Bft) 100,00 %
06.03.2026 11:28 15,1 °C 21,1 °C 14,4 °C 61 % 1021,9 hPa 0,0 l/m² 2 min 442 W/m² 12,9 km/h (3 Bft) 97,87 %
06.03.2026 11:30 15,2 °C 21,7 °C 14,4 °C 61 % 1021,9 hPa 0,0 l/m² 2 min 425 W/m² 9,7 km/h (2 Bft) 98,15 %
06.03.2026 11:32 15,3 °C 21,7 °C 14,4 °C 61 % 1021,9 hPa 0,0 l/m² 2 min 417 W/m² 12,9 km/h (3 Bft) 97,87 %
06.03.2026 11:34 15,4 °C 21,7 °C 15,0 °C 60 % 1022,0 hPa 0,0 l/m² 2 min 422 W/m² 6,4 km/h (2 Bft) 97,87 %
06.03.2026 11:36 15,4 °C 22,2 °C 15,6 °C 60 % 1021,9 hPa 0,0 l/m² 2 min 432 W/m² 12,9 km/h (3 Bft) 97,87 %
06.03.2026 11:38 15,6 °C 21,1 °C 15,0 °C 60 % 1021,9 hPa 0,0 l/m² 2 min 439 W/m² 12,9 km/h (3 Bft) 97,83 %
06.03.2026 11:40 15,6 °C 21,1 °C 15,0 °C 60 % 1022,0 hPa 0,0 l/m² 2 min 446 W/m² 12,9 km/h (3 Bft) 97,87 %
06.03.2026 11:42 15,6 °C 20,6 °C 14,4 °C 60 % 1022,0 hPa 0,0 l/m² 2 min 435 W/m² 12,9 km/h (3 Bft) 97,87 %
06.03.2026 11:44 15,7 °C 20,6 °C 15,0 °C 60 % 1022,0 hPa 0,0 l/m² 2 min 436 W/m² 12,9 km/h (3 Bft) 97,87 %
06.03.2026 11:46 15,7 °C 21,1 °C 15,0 °C 60 % 1022,0 hPa 0,0 l/m² 2 min 477 W/m² 6,4 km/h (2 Bft) 97,87 %
06.03.2026 11:48 15,8 °C 21,1 °C 15,0 °C 59 % 1022,0 hPa 0,0 l/m² 2 min 456 W/m² 9,7 km/h (2 Bft) 97,87 %
06.03.2026 11:50 15,9 °C 21,1 °C 15,0 °C 59 % 1022,0 hPa 0,0 l/m² 2 min 384 W/m² 16,1 km/h (3 Bft) 97,83 %
06.03.2026 11:52 15,9 °C 21,7 °C 15,0 °C 59 % 1022,0 hPa 0,0 l/m² 2 min 387 W/m² 9,7 km/h (2 Bft) 95,74 %
06.03.2026 11:54 16,0 °C 21,1 °C 15,0 °C 60 % 1022,0 hPa 0,0 l/m² 2 min 415 W/m² 6,4 km/h (2 Bft) 97,87 %
06.03.2026 11:56 16,1 °C 21,1 °C 15,0 °C 59 % 1022,0 hPa 0,0 l/m² 2 min 432 W/m² 6,4 km/h (2 Bft) 97,87 %
06.03.2026 11:58 16,1 °C 21,7 °C 15,0 °C 59 % 1022,0 hPa 0,0 l/m² 2 min 449 W/m² 16,1 km/h (3 Bft) 97,87 %
06.03.2026 12:00 16,2 °C 20,6 °C 15,0 °C 59 % 1022,0 hPa 0,0 l/m² 2 min 451 W/m² 12,9 km/h (3 Bft) 100,00 %
06.03.2026 12:02 16,2 °C 20,6 °C 14,4 °C 58 % 1022,0 hPa 0,0 l/m² 2 min 446 W/m² 16,1 km/h (3 Bft) 100,00 %
06.03.2026 12:04 16,2 °C 20,0 °C 14,4 °C 58 % 1022,0 hPa 0,0 l/m² 2 min 451 W/m² 19,3 km/h (3 Bft) 97,62 %
06.03.2026 12:08 16,3 °C 20,0 °C 14,4 °C 58 % 1022,0 hPa 0,0 l/m² 4 min 447 W/m² 19,3 km/h (3 Bft) 100,00 %
06.03.2026 12:12 16,4 °C 19,4 °C 14,4 °C 58 % 1022,0 hPa 0,0 l/m² 4 min 478 W/m² 12,9 km/h (3 Bft) 100,00 %
06.03.2026 12:14 16,4 °C 19,4 °C 13,9 °C 58 % 1022,0 hPa 0,0 l/m² 2 min 465 W/m² 16,1 km/h (3 Bft) 100,00 %
06.03.2026 12:16 16,5 °C 20,6 °C 13,9 °C 58 % 1022,0 hPa 0,0 l/m² 2 min 470 W/m² 12,9 km/h (3 Bft) 100,00 %
06.03.2026 12:18 16,6 °C 20,6 °C 13,9 °C 58 % 1021,9 hPa 0,0 l/m² 2 min 483 W/m² 12,9 km/h (3 Bft) 97,87 %
06.03.2026 12:20 16,7 °C 20,0 °C 13,9 °C 58 % 1022,0 hPa 0,0 l/m² 2 min 470 W/m² 12,9 km/h (3 Bft) 100,00 %
06.03.2026 12:22 16,7 °C 20,0 °C 13,9 °C 58 % 1022,0 hPa 0,0 l/m² 2 min 455 W/m² 9,7 km/h (2 Bft) 97,87 %
06.03.2026 12:24 16,8 °C 20,0 °C 13,9 °C 57 % 1021,9 hPa 0,0 l/m² 2 min 452 W/m² 19,3 km/h (3 Bft) 97,87 %
06.03.2026 12:26 16,8 °C 20,6 °C 13,9 °C 57 % 1022,0 hPa 0,0 l/m² 2 min 473 W/m² 12,9 km/h (3 Bft) 97,87 %
06.03.2026 12:28 16,9 °C 21,7 °C 14,4 °C 57 % 1022,0 hPa 0,0 l/m² 2 min 474 W/m² 12,9 km/h (3 Bft) 97,87 %
06.03.2026 12:30 17,0 °C 22,2 °C 14,4 °C 57 % 1022,0 hPa 0,0 l/m² 2 min 470 W/m² 9,7 km/h (2 Bft) 97,87 %
06.03.2026 12:32 17,1 °C 22,8 °C 14,4 °C 57 % 1022,1 hPa 0,0 l/m² 2 min 478 W/m² 16,1 km/h (3 Bft) 97,83 %
06.03.2026 12:34 17,2 °C 22,8 °C 14,4 °C 56 % 1022,0 hPa 0,0 l/m² 2 min 485 W/m² 12,9 km/h (3 Bft) 95,74 %
06.03.2026 12:36 17,3 °C 23,3 °C 15,0 °C 56 % 1022,1 hPa 0,0 l/m² 2 min 481 W/m² 6,4 km/h (2 Bft) 97,87 %
06.03.2026 12:38 17,3 °C 23,3 °C 15,0 °C 56 % 1022,1 hPa 0,0 l/m² 2 min 460 W/m² 12,9 km/h (3 Bft) 97,87 %
06.03.2026 12:40 17,4 °C 23,3 °C 14,4 °C 56 % 1022,0 hPa 0,0 l/m² 2 min 461 W/m² 9,7 km/h (2 Bft) 97,87 %
06.03.2026 12:42 17,5 °C 23,9 °C 14,4 °C 56 % 1022,0 hPa 0,0 l/m² 2 min 467 W/m² 6,4 km/h (2 Bft) 97,87 %
06.03.2026 12:44 17,6 °C 23,9 °C 14,4 °C 56 % 1022,0 hPa 0,0 l/m² 2 min 453 W/m² 9,7 km/h (2 Bft) 97,83 %
06.03.2026 12:46 17,7 °C 23,3 °C 13,9 °C 55 % 1022,0 hPa 0,0 l/m² 2 min 455 W/m² 16,1 km/h (3 Bft) 97,87 %
06.03.2026 12:48 17,7 °C 22,8 °C 13,9 °C 55 % 1022,0 hPa 0,0 l/m² 2 min 468 W/m² 19,3 km/h (3 Bft) 97,87 %
06.03.2026 12:50 17,7 °C 22,8 °C 13,9 °C 55 % 1022,0 hPa 0,0 l/m² 2 min 464 W/m² 12,9 km/h (3 Bft) 95,74 %
06.03.2026 12:52 17,7 °C 23,3 °C 13,9 °C 55 % 1022,0 hPa 0,0 l/m² 2 min 468 W/m² 12,9 km/h (3 Bft) 97,87 %
06.03.2026 12:54 17,8 °C 23,9 °C 13,9 °C 55 % 1022,0 hPa 0,0 l/m² 2 min 463 W/m² 3,2 km/h (1 Bft) 97,87 %
06.03.2026 12:56 17,9 °C 23,9 °C 13,3 °C 55 % 1022,0 hPa 0,0 l/m² 2 min 473 W/m² 16,1 km/h (3 Bft) 97,83 %
06.03.2026 12:58 17,9 °C 23,9 °C 13,3 °C 55 % 1022,0 hPa 0,0 l/m² 2 min 484 W/m² 6,4 km/h (2 Bft) 97,87 %
06.03.2026 13:00 17,9 °C 24,4 °C 13,3 °C 56 % 1022,0 hPa 0,0 l/m² 2 min 479 W/m² 12,9 km/h (3 Bft) 95,74 %
06.03.2026 13:02 18,0 °C 23,9 °C 13,3 °C 56 % 1022,0 hPa 0,0 l/m² 2 min 471 W/m² 12,9 km/h (3 Bft) 97,87 %
06.03.2026 13:04 18,1 °C 24,4 °C 13,3 °C 56 % 1022,0 hPa 0,0 l/m² 2 min 463 W/m² 6,4 km/h (2 Bft) 95,74 %
06.03.2026 13:06 18,1 °C 23,9 °C 13,3 °C 55 % 1022,0 hPa 0,0 l/m² 2 min 480 W/m² 16,1 km/h (3 Bft) 100,00 %
06.03.2026 13:08 18,1 °C 23,9 °C 13,3 °C 55 % 1022,0 hPa 0,0 l/m² 2 min 483 W/m² 6,4 km/h (2 Bft) 97,14 %
06.03.2026 13:10 18,1 °C 25,0 °C 13,3 °C 56 % 1022,0 hPa 0,0 l/m² 2 min 481 W/m² 6,4 km/h (2 Bft) 100,00 %
06.03.2026 13:12 18,2 °C 25,0 °C 13,3 °C 56 % 1022,0 hPa 0,0 l/m² 2 min 470 W/m² 9,7 km/h (2 Bft) 100,00 %
06.03.2026 13:14 18,3 °C 25,0 °C 13,3 °C 56 % 1022,0 hPa 0,0 l/m² 2 min 476 W/m² 9,7 km/h (2 Bft) 100,00 %
06.03.2026 13:16 18,3 °C 25,0 °C 13,3 °C 56 % 1022,0 hPa 0,0 l/m² 2 min 482 W/m² 9,7 km/h (2 Bft) 100,00 %
06.03.2026 13:18 18,4 °C 24,4 °C 13,3 °C 55 % 1021,9 hPa 0,0 l/m² 2 min 471 W/m² 9,7 km/h (2 Bft) 97,87 %
06.03.2026 13:20 18,4 °C 24,4 °C 13,3 °C 56 % 1021,9 hPa 0,0 l/m² 2 min 469 W/m² 6,4 km/h (2 Bft) 97,87 %
06.03.2026 13:22 18,4 °C 23,9 °C 13,3 °C 56 % 1021,9 hPa 0,0 l/m² 2 min 473 W/m² 12,9 km/h (3 Bft) 100,00 %
06.03.2026 13:24 18,5 °C 23,3 °C 12,8 °C 56 % 1021,9 hPa 0,0 l/m² 2 min 472 W/m² 12,9 km/h (3 Bft) 100,00 %
06.03.2026 13:26 18,5 °C 23,9 °C 12,8 °C 55 % 1021,9 hPa 0,0 l/m² 2 min 476 W/m² 9,7 km/h (2 Bft) 100,00 %
06.03.2026 13:28 18,6 °C 25,0 °C 13,3 °C 56 % 1021,9 hPa 0,0 l/m² 2 min 474 W/m² 6,4 km/h (2 Bft) 97,87 %
06.03.2026 13:30 18,6 °C 23,9 °C 13,3 °C 56 % 1021,9 hPa 0,0 l/m² 2 min 474 W/m² 9,7 km/h (2 Bft) 95,65 %
06.03.2026 13:32 18,7 °C 25,0 °C 13,3 °C 55 % 1021,9 hPa 0,0 l/m² 2 min 484 W/m² 9,7 km/h (2 Bft) 97,87 %
06.03.2026 13:34 18,6 °C 24,4 °C 13,3 °C 55 % 1021,9 hPa 0,0 l/m² 2 min 483 W/m² 12,9 km/h (3 Bft) 97,87 %
06.03.2026 13:36 18,7 °C 25,6 °C 13,3 °C 55 % 1021,9 hPa 0,0 l/m² 2 min 478 W/m² 6,4 km/h (2 Bft) 95,74 %
06.03.2026 13:38 18,7 °C 25,6 °C 13,3 °C 55 % 1021,9 hPa 0,0 l/m² 2 min 463 W/m² 6,4 km/h (2 Bft) 97,87 %
06.03.2026 13:40 18,7 °C 25,6 °C 13,3 °C 55 % 1021,8 hPa 0,0 l/m² 2 min 472 W/m² 6,4 km/h (2 Bft) 95,74 %
06.03.2026 13:42 18,8 °C 26,1 °C 13,3 °C 56 % 1021,8 hPa 0,0 l/m² 2 min 476 W/m² 6,4 km/h (2 Bft) 95,65 %
06.03.2026 13:44 18,8 °C 26,1 °C 13,3 °C 56 % 1021,8 hPa 0,0 l/m² 2 min 467 W/m² 12,9 km/h (3 Bft) 97,87 %
06.03.2026 13:46 18,9 °C 25,6 °C 13,3 °C 55 % 1021,8 hPa 0,0 l/m² 2 min 466 W/m² 6,4 km/h (2 Bft) 97,87 %
06.03.2026 13:48 18,9 °C 25,0 °C 13,3 °C 55 % 1021,8 hPa 0,0 l/m² 2 min 460 W/m² 6,4 km/h (2 Bft) 97,87 %
06.03.2026 13:50 18,9 °C 23,9 °C 13,3 °C 55 % 1021,8 hPa 0,0 l/m² 2 min 441 W/m² 9,7 km/h (2 Bft) 97,87 %
06.03.2026 13:52 18,9 °C 23,9 °C 13,3 °C 55 % 1021,8 hPa 0,0 l/m² 2 min 437 W/m² 6,4 km/h (2 Bft) 95,74 %
06.03.2026 13:54 18,9 °C 23,9 °C 13,3 °C 55 % 1021,8 hPa 0,0 l/m² 2 min 458 W/m² 12,9 km/h (3 Bft) 93,48 %
06.03.2026 13:56 18,9 °C 23,9 °C 13,3 °C 55 % 1021,8 hPa 0,0 l/m² 2 min 465 W/m² 12,9 km/h (3 Bft) 97,87 %
06.03.2026 13:58 18,9 °C 23,9 °C 13,3 °C 54 % 1021,8 hPa 0,0 l/m² 2 min 458 W/m² 3,2 km/h (1 Bft) 97,87 %
06.03.2026 14:00 18,9 °C 24,4 °C 13,3 °C 55 % 1021,8 hPa 0,0 l/m² 2 min 463 W/m² 9,7 km/h (2 Bft) 97,87 %
06.03.2026 14:02 19,0 °C 24,4 °C 13,3 °C 55 % 1021,8 hPa 0,0 l/m² 2 min 459 W/m² 9,7 km/h (2 Bft) 97,87 %
06.03.2026 14:04 19,0 °C 23,9 °C 13,3 °C 55 % 1021,8 hPa 0,0 l/m² 2 min 451 W/m² 12,9 km/h (3 Bft) 97,87 %
06.03.2026 14:06 19,0 °C 23,9 °C 13,3 °C 55 % 1021,8 hPa 0,0 l/m² 2 min 436 W/m² 12,9 km/h (3 Bft) 97,87 %
06.03.2026 14:08 19,0 °C 23,9 °C 13,3 °C 55 % 1021,8 hPa 0,0 l/m² 2 min 416 W/m² 6,4 km/h (2 Bft) 100,00 %
06.03.2026 14:10 19,0 °C 23,3 °C 13,3 °C 55 % 1021,7 hPa 0,0 l/m² 2 min 414 W/m² 12,9 km/h (3 Bft) 100,00 %
06.03.2026 14:12 19,0 °C 23,9 °C 13,3 °C 54 % 1021,7 hPa 0,0 l/m² 2 min 416 W/m² 6,4 km/h (2 Bft) 97,83 %
06.03.2026 14:14 19,0 °C 23,3 °C 13,3 °C 54 % 1021,7 hPa 0,0 l/m² 2 min 412 W/m² 12,9 km/h (3 Bft) 97,87 %
06.03.2026 14:16 19,0 °C 23,3 °C 13,3 °C 54 % 1021,6 hPa 0,0 l/m² 2 min 421 W/m² 9,7 km/h (2 Bft) 97,87 %
06.03.2026 14:18 19,0 °C 23,3 °C 13,3 °C 54 % 1021,6 hPa 0,0 l/m² 2 min 430 W/m² 3,2 km/h (1 Bft) 95,74 %
06.03.2026 14:20 19,0 °C 23,9 °C 13,3 °C 54 % 1021,5 hPa 0,0 l/m² 2 min 422 W/m² 6,4 km/h (2 Bft) 97,87 %
06.03.2026 14:22 19,0 °C 23,3 °C 13,3 °C 54 % 1021,5 hPa 0,0 l/m² 2 min 419 W/m² 16,1 km/h (3 Bft) 95,74 %
06.03.2026 14:24 19,0 °C 22,8 °C 13,3 °C 54 % 1021,5 hPa 0,0 l/m² 2 min 428 W/m² 12,9 km/h (3 Bft) 97,83 %
06.03.2026 14:26 18,9 °C 23,3 °C 13,3 °C 54 % 1021,4 hPa 0,0 l/m² 2 min 427 W/m² 12,9 km/h (3 Bft) 93,62 %
06.03.2026 14:28 18,9 °C 23,3 °C 13,3 °C 54 % 1021,4 hPa 0,0 l/m² 2 min 422 W/m² 6,4 km/h (2 Bft) 97,87 %
06.03.2026 14:30 19,0 °C 23,3 °C 13,3 °C 54 % 1021,4 hPa 0,0 l/m² 2 min 420 W/m² 12,9 km/h (3 Bft) 97,87 %
06.03.2026 14:32 19,1 °C 23,9 °C 13,3 °C 54 % 1021,4 hPa 0,0 l/m² 2 min 425 W/m² 0,0 km/h (0 Bft) 97,87 %
06.03.2026 14:34 19,1 °C 24,4 °C 13,9 °C 55 % 1021,4 hPa 0,0 l/m² 2 min 422 W/m² 6,4 km/h (2 Bft) 97,87 %
06.03.2026 14:36 19,1 °C 24,4 °C 13,9 °C 54 % 1021,4 hPa 0,0 l/m² 2 min 417 W/m² 3,2 km/h (1 Bft) 97,83 %
06.03.2026 14:38 19,1 °C 25,0 °C 13,9 °C 54 % 1021,3 hPa 0,0 l/m² 2 min 413 W/m² 6,4 km/h (2 Bft) 95,74 %
06.03.2026 14:40 19,1 °C 24,4 °C 13,3 °C 55 % 1021,3 hPa 0,0 l/m² 2 min 408 W/m² 6,4 km/h (2 Bft) 97,87 %
06.03.2026 14:42 19,2 °C 24,4 °C 13,9 °C 54 % 1021,4 hPa 0,0 l/m² 2 min 400 W/m² 6,4 km/h (2 Bft) 93,62 %
06.03.2026 14:44 19,2 °C 24,4 °C 13,9 °C 55 % 1021,4 hPa 0,0 l/m² 2 min 398 W/m² 6,4 km/h (2 Bft) 95,74 %
06.03.2026 14:46 19,3 °C 25,0 °C 13,9 °C 55 % 1021,3 hPa 0,0 l/m² 2 min 398 W/m² 3,2 km/h (1 Bft) 95,74 %
06.03.2026 14:48 19,4 °C 25,0 °C 13,9 °C 54 % 1021,4 hPa 0,0 l/m² 2 min 398 W/m² 6,4 km/h (2 Bft) 97,83 %
06.03.2026 14:50 19,4 °C 25,0 °C 13,9 °C 55 % 1021,3 hPa 0,0 l/m² 2 min 396 W/m² 6,4 km/h (2 Bft) 97,87 %
06.03.2026 14:52 19,4 °C 24,4 °C 13,9 °C 54 % 1021,3 hPa 0,0 l/m² 2 min 392 W/m² 6,4 km/h (2 Bft) 95,74 %
06.03.2026 14:54 19,4 °C 23,9 °C 13,9 °C 54 % 1021,3 hPa 0,0 l/m² 2 min 389 W/m² 6,4 km/h (2 Bft) 97,87 %
06.03.2026 14:56 19,4 °C 23,9 °C 13,9 °C 54 % 1021,3 hPa 0,0 l/m² 2 min 385 W/m² 6,4 km/h (2 Bft) 95,74 %
06.03.2026 14:58 19,4 °C 24,4 °C 13,9 °C 54 % 1021,3 hPa 0,0 l/m² 2 min 381 W/m² 3,2 km/h (1 Bft) 95,74 %
06.03.2026 15:00 19,5 °C 23,9 °C 13,9 °C 54 % 1021,3 hPa 0,0 l/m² 2 min 377 W/m² 6,4 km/h (2 Bft) 95,65 %
06.03.2026 15:02 19,5 °C 23,9 °C 13,9 °C 54 % 1021,3 hPa 0,0 l/m² 2 min 370 W/m² 6,4 km/h (2 Bft) 95,74 %
06.03.2026 15:04 19,5 °C 23,9 °C 13,9 °C 54 % 1021,2 hPa 0,0 l/m² 2 min 368 W/m² 3,2 km/h (1 Bft) 95,74 %
06.03.2026 15:06 19,6 °C 23,9 °C 13,9 °C 54 % 1021,2 hPa 0,0 l/m² 2 min 362 W/m² 6,4 km/h (2 Bft) 95,83 %
06.03.2026 15:08 19,6 °C 24,4 °C 13,9 °C 54 % 1021,2 hPa 0,0 l/m² 2 min 354 W/m² 3,2 km/h (1 Bft) 91,67 %
06.03.2026 15:10 19,6 °C 23,3 °C 13,9 °C 53 % 1021,2 hPa 0,0 l/m² 2 min 350 W/m² 6,4 km/h (2 Bft) 97,87 %
06.03.2026 15:12 19,7 °C 23,3 °C 13,9 °C 53 % 1021,1 hPa 0,0 l/m² 2 min 347 W/m² 6,4 km/h (2 Bft) 97,83 %
06.03.2026 15:14 19,7 °C 23,3 °C 13,9 °C 53 % 1021,2 hPa 0,0 l/m² 2 min 341 W/m² 12,9 km/h (3 Bft) 97,87 %
06.03.2026 15:16 19,7 °C 23,3 °C 13,9 °C 53 % 1021,2 hPa 0,0 l/m² 2 min 345 W/m² 3,2 km/h (1 Bft) 97,87 %
06.03.2026 15:18 19,8 °C 23,9 °C 13,9 °C 53 % 1021,2 hPa 0,0 l/m² 2 min 344 W/m² 6,4 km/h (2 Bft) 97,87 %
06.03.2026 15:20 19,8 °C 23,9 °C 13,9 °C 53 % 1021,1 hPa 0,0 l/m² 2 min 341 W/m² 3,2 km/h (1 Bft) 95,74 %
06.03.2026 15:22 19,9 °C 23,3 °C 13,9 °C 52 % 1021,2 hPa 0,0 l/m² 2 min 337 W/m² 3,2 km/h (1 Bft) 95,65 %
06.03.2026 15:24 19,9 °C 23,3 °C 13,9 °C 52 % 1021,2 hPa 0,0 l/m² 2 min 332 W/m² 6,4 km/h (2 Bft) 97,87 %
06.03.2026 15:26 19,9 °C 23,3 °C 13,9 °C 52 % 1021,2 hPa 0,0 l/m² 2 min 328 W/m² 0,0 km/h (0 Bft) 93,62 %
06.03.2026 15:28 20,0 °C 23,9 °C 13,9 °C 52 % 1021,2 hPa 0,0 l/m² 2 min 323 W/m² 3,2 km/h (1 Bft) 97,87 %
06.03.2026 15:30 20,1 °C 23,3 °C 13,9 °C 52 % 1021,2 hPa 0,0 l/m² 2 min 318 W/m² 3,2 km/h (1 Bft) 97,87 %
06.03.2026 15:32 20,1 °C 23,3 °C 13,9 °C 52 % 1021,2 hPa 0,0 l/m² 2 min 313 W/m² 3,2 km/h (1 Bft) 95,74 %
06.03.2026 15:34 20,2 °C 23,3 °C 13,9 °C 52 % 1021,1 hPa 0,0 l/m² 2 min 308 W/m² 3,2 km/h (1 Bft) 97,83 %
06.03.2026 15:36 20,2 °C 23,3 °C 13,9 °C 52 % 1021,1 hPa 0,0 l/m² 2 min 302 W/m² 3,2 km/h (1 Bft) 97,87 %
06.03.2026 15:38 20,3 °C 22,8 °C 13,9 °C 51 % 1021,1 hPa 0,0 l/m² 2 min 297 W/m² 3,2 km/h (1 Bft) 97,87 %
06.03.2026 15:40 20,3 °C 22,2 °C 13,9 °C 51 % 1021,1 hPa 0,0 l/m² 2 min 291 W/m² 6,4 km/h (2 Bft) 97,87 %
06.03.2026 15:42 20,3 °C 22,2 °C 13,9 °C 51 % 1021,2 hPa 0,0 l/m² 2 min 287 W/m² 6,4 km/h (2 Bft) 95,74 %
06.03.2026 15:44 20,3 °C 22,2 °C 13,3 °C 52 % 1021,2 hPa 0,0 l/m² 2 min 282 W/m² 3,2 km/h (1 Bft) 97,87 %
06.03.2026 15:46 20,3 °C 22,2 °C 13,3 °C 51 % 1021,2 hPa 0,0 l/m² 2 min 277 W/m² 3,2 km/h (1 Bft) 95,65 %
06.03.2026 15:48 20,3 °C 22,8 °C 13,3 °C 51 % 1021,2 hPa 0,0 l/m² 2 min 272 W/m² 3,2 km/h (1 Bft) 97,87 %
06.03.2026 15:50 20,2 °C 22,2 °C 13,9 °C 51 % 1021,2 hPa 0,0 l/m² 2 min 268 W/m² 3,2 km/h (1 Bft) 95,74 %
06.03.2026 15:52 20,2 °C 22,2 °C 13,9 °C 50 % 1021,1 hPa 0,0 l/m² 2 min 261 W/m² 6,4 km/h (2 Bft) 97,87 %
06.03.2026 15:54 20,1 °C 21,7 °C 13,9 °C 51 % 1021,2 hPa 0,0 l/m² 2 min 257 W/m² 3,2 km/h (1 Bft) 97,87 %
06.03.2026 15:56 20,0 °C 22,2 °C 13,3 °C 52 % 1021,1 hPa 0,0 l/m² 2 min 252 W/m² 3,2 km/h (1 Bft) 97,87 %
06.03.2026 15:58 19,9 °C 22,2 °C 13,3 °C 52 % 1021,1 hPa 0,0 l/m² 2 min 246 W/m² 6,4 km/h (2 Bft) 97,83 %
06.03.2026 16:00 19,9 °C 21,7 °C 13,3 °C 52 % 1021,0 hPa 0,0 l/m² 2 min 241 W/m² 6,4 km/h (2 Bft) 97,87 %
06.03.2026 16:02 19,9 °C 21,7 °C 13,3 °C 53 % 1021,0 hPa 0,0 l/m² 2 min 238 W/m² 3,2 km/h (1 Bft) 97,87 %
06.03.2026 16:04 19,9 °C 21,7 °C 13,3 °C 54 % 1021,0 hPa 0,0 l/m² 2 min 234 W/m² 3,2 km/h (1 Bft) 95,74 %
06.03.2026 16:06 19,8 °C 21,7 °C 13,3 °C 53 % 1021,0 hPa 0,0 l/m² 2 min 230 W/m² 3,2 km/h (1 Bft) 97,87 %
06.03.2026 16:08 19,8 °C 21,7 °C 13,3 °C 53 % 1021,0 hPa 0,0 l/m² 2 min 224 W/m² 3,2 km/h (1 Bft) 95,74 %
06.03.2026 16:10 19,8 °C 21,7 °C 12,8 °C 54 % 1021,0 hPa 0,0 l/m² 2 min 220 W/m² 3,2 km/h (1 Bft) 97,83 %
06.03.2026 16:12 19,7 °C 21,1 °C 12,8 °C 54 % 1021,0 hPa 0,0 l/m² 2 min 215 W/m² 3,2 km/h (1 Bft) 97,87 %
06.03.2026 16:14 19,7 °C 21,1 °C 12,8 °C 53 % 1021,1 hPa 0,0 l/m² 2 min 210 W/m² 3,2 km/h (1 Bft) 97,87 %
06.03.2026 16:16 19,6 °C 21,1 °C 12,8 °C 54 % 1021,1 hPa 0,0 l/m² 2 min 206 W/m² 3,2 km/h (1 Bft) 97,87 %
06.03.2026 16:18 19,6 °C 20,6 °C 12,8 °C 54 % 1021,1 hPa 0,0 l/m² 2 min 202 W/m² 3,2 km/h (1 Bft) 95,74 %
06.03.2026 16:20 19,4 °C 20,0 °C 12,8 °C 54 % 1021,1 hPa 0,0 l/m² 2 min 197 W/m² 3,2 km/h (1 Bft) 97,87 %
06.03.2026 16:22 19,4 °C 20,0 °C 12,8 °C 54 % 1021,1 hPa 0,0 l/m² 2 min 193 W/m² 3,2 km/h (1 Bft) 95,65 %
06.03.2026 16:24 19,4 °C 19,4 °C 12,8 °C 54 % 1021,1 hPa 0,0 l/m² 2 min 190 W/m² 3,2 km/h (1 Bft) 95,83 %
06.03.2026 16:26 19,3 °C 19,4 °C 12,8 °C 54 % 1021,1 hPa 0,0 l/m² 2 min 185 W/m² 3,2 km/h (1 Bft) 100,00 %
06.03.2026 16:28 19,3 °C 19,4 °C 12,8 °C 54 % 1021,2 hPa 0,0 l/m² 2 min 181 W/m² 3,2 km/h (1 Bft) 100,00 %
06.03.2026 16:30 19,3 °C 18,9 °C 12,8 °C 54 % 1021,1 hPa 0,0 l/m² 2 min 176 W/m² 0,0 km/h (0 Bft) 100,00 %
06.03.2026 16:32 19,2 °C 18,9 °C 12,8 °C 54 % 1021,2 hPa 0,0 l/m² 2 min 171 W/m² 3,2 km/h (1 Bft) 100,00 %
06.03.2026 16:34 19,2 °C 18,9 °C 12,8 °C 54 % 1021,2 hPa 0,0 l/m² 2 min 167 W/m² 6,4 km/h (2 Bft) 97,87 %
06.03.2026 16:36 19,2 °C 18,9 °C 12,8 °C 55 % 1021,2 hPa 0,0 l/m² 2 min 162 W/m² 3,2 km/h (1 Bft) 100,00 %
06.03.2026 16:38 19,1 °C 18,9 °C 12,8 °C 55 % 1021,2 hPa 0,0 l/m² 2 min 157 W/m² 3,2 km/h (1 Bft) 97,87 %
06.03.2026 16:40 19,1 °C 18,9 °C 12,8 °C 55 % 1021,2 hPa 0,0 l/m² 2 min 153 W/m² 3,2 km/h (1 Bft) 100,00 %
06.03.2026 16:42 19,1 °C 18,9 °C 12,8 °C 55 % 1021,2 hPa 0,0 l/m² 2 min 148 W/m² 0,0 km/h (0 Bft) 100,00 %
06.03.2026 16:44 19,0 °C 18,3 °C 12,8 °C 55 % 1021,2 hPa 0,0 l/m² 2 min 143 W/m² 3,2 km/h (1 Bft) 100,00 %
06.03.2026 16:46 18,9 °C 18,3 °C 12,8 °C 55 % 1021,2 hPa 0,0 l/m² 2 min 137 W/m² 3,2 km/h (1 Bft) 100,00 %
06.03.2026 16:48 18,9 °C 18,3 °C 12,2 °C 56 % 1021,2 hPa 0,0 l/m² 2 min 132 W/m² 3,2 km/h (1 Bft) 100,00 %
06.03.2026 16:50 18,9 °C 18,3 °C 12,2 °C 55 % 1021,2 hPa 0,0 l/m² 2 min 126 W/m² 6,4 km/h (2 Bft) 100,00 %
06.03.2026 16:52 18,9 °C 18,3 °C 12,2 °C 55 % 1021,2 hPa 0,0 l/m² 2 min 121 W/m² 0,0 km/h (0 Bft) 100,00 %
06.03.2026 16:54 18,9 °C 18,3 °C 12,2 °C 56 % 1021,3 hPa 0,0 l/m² 2 min 116 W/m² 3,2 km/h (1 Bft) 100,00 %
06.03.2026 16:56 18,8 °C 18,3 °C 12,2 °C 56 % 1021,3 hPa 0,0 l/m² 2 min 112 W/m² 0,0 km/h (0 Bft) 97,83 %
06.03.2026 16:58 18,8 °C 17,8 °C 12,2 °C 56 % 1021,3 hPa 0,0 l/m² 2 min 109 W/m² 0,0 km/h (0 Bft) 97,14 %
06.03.2026 17:00 18,8 °C 17,8 °C 11,7 °C 56 % 1021,3 hPa 0,0 l/m² 2 min 105 W/m² 0,0 km/h (0 Bft) 100,00 %
06.03.2026 17:02 18,8 °C 17,8 °C 11,7 °C 56 % 1021,3 hPa 0,0 l/m² 2 min 101 W/m² 0,0 km/h (0 Bft) 100,00 %
06.03.2026 17:04 18,7 °C 17,8 °C 11,7 °C 56 % 1021,4 hPa 0,0 l/m² 2 min 97 W/m² 0,0 km/h (0 Bft) 97,14 %
06.03.2026 17:06 18,7 °C 17,2 °C 11,7 °C 57 % 1021,5 hPa 0,0 l/m² 0 min 90 W/m² 0,0 km/h (0 Bft) 100,00 %
06.03.2026 17:08 18,6 °C 17,2 °C 11,7 °C 57 % 1021,5 hPa 0,0 l/m² 0 min 83 W/m² 0,0 km/h (0 Bft) 97,87 %
06.03.2026 17:10 18,6 °C 17,2 °C 11,7 °C 58 % 1021,4 hPa 0,0 l/m² 0 min 79 W/m² 0,0 km/h (0 Bft) 100,00 %
06.03.2026 17:12 18,5 °C 17,2 °C 11,1 °C 57 % 1021,5 hPa 0,0 l/m² 0 min 77 W/m² 0,0 km/h (0 Bft) 97,87 %
06.03.2026 17:14 18,4 °C 17,2 °C 11,1 °C 58 % 1021,5 hPa 0,0 l/m² 0 min 74 W/m² 0,0 km/h (0 Bft) 100,00 %
06.03.2026 17:16 18,4 °C 17,2 °C 11,1 °C 58 % 1021,5 hPa 0,0 l/m² 0 min 71 W/m² 0,0 km/h (0 Bft) 100,00 %
06.03.2026 17:18 18,4 °C 16,7 °C 11,1 °C 58 % 1021,5 hPa 0,0 l/m² 0 min 69 W/m² 0,0 km/h (0 Bft) 93,62 %
06.03.2026 17:20 18,3 °C 16,7 °C 11,1 °C 58 % 1021,5 hPa 0,0 l/m² 0 min 66 W/m² 0,0 km/h (0 Bft) 100,00 %
06.03.2026 17:22 18,3 °C 16,7 °C 10,6 °C 58 % 1021,6 hPa 0,0 l/m² 0 min 63 W/m² 0,0 km/h (0 Bft) 100,00 %
06.03.2026 17:24 18,2 °C 16,7 °C 10,6 °C 59 % 1021,6 hPa 0,0 l/m² 0 min 61 W/m² 0,0 km/h (0 Bft) 100,00 %
06.03.2026 17:26 18,2 °C 16,7 °C 10,6 °C 59 % 1021,6 hPa 0,0 l/m² 0 min 57 W/m² 0,0 km/h (0 Bft) 97,87 %
06.03.2026 17:28 18,1 °C 16,7 °C 10,6 °C 59 % 1021,5 hPa 0,0 l/m² 0 min 54 W/m² 0,0 km/h (0 Bft) 91,49 %
06.03.2026 17:30 18,1 °C 16,1 °C 10,6 °C 59 % 1021,5 hPa 0,0 l/m² 0 min 51 W/m² 0,0 km/h (0 Bft) 95,74 %
06.03.2026 17:32 18,1 °C 16,1 °C 10,6 °C 59 % 1021,5 hPa 0,0 l/m² 0 min 47 W/m² 0,0 km/h (0 Bft) 95,74 %
06.03.2026 17:34 18,0 °C 16,1 °C 10,0 °C 60 % 1021,5 hPa 0,0 l/m² 0 min 44 W/m² 0,0 km/h (0 Bft) 95,74 %
06.03.2026 17:36 17,9 °C 16,1 °C 10,0 °C 60 % 1021,5 hPa 0,0 l/m² 0 min 40 W/m² 0,0 km/h (0 Bft) 95,74 %
06.03.2026 17:38 17,9 °C 15,6 °C 10,0 °C 60 % 1021,5 hPa 0,0 l/m² 0 min 37 W/m² 0,0 km/h (0 Bft) 95,65 %
06.03.2026 17:40 17,8 °C 15,6 °C 10,0 °C 60 % 1021,5 hPa 0,0 l/m² 0 min 33 W/m² 0,0 km/h (0 Bft) 95,74 %
06.03.2026 17:42 17,8 °C 15,6 °C 10,0 °C 60 % 1021,5 hPa 0,0 l/m² 0 min 30 W/m² 0,0 km/h (0 Bft) 95,74 %
06.03.2026 17:44 17,7 °C 15,6 °C 9,4 °C 60 % 1021,5 hPa 0,0 l/m² 0 min 26 W/m² 0,0 km/h (0 Bft) 95,74 %
06.03.2026 17:46 17,7 °C 15,0 °C 9,4 °C 60 % 1021,5 hPa 0,0 l/m² 0 min 24 W/m² 0,0 km/h (0 Bft) 93,62 %
06.03.2026 17:48 17,6 °C 15,0 °C 9,4 °C 60 % 1021,6 hPa 0,0 l/m² 0 min 21 W/m² 0,0 km/h (0 Bft) 95,74 %
06.03.2026 17:50 17,6 °C 15,0 °C 9,4 °C 60 % 1021,6 hPa 0,0 l/m² 0 min 19 W/m² 0,0 km/h (0 Bft) 93,48 %
06.03.2026 17:52 17,5 °C 14,4 °C 9,4 °C 60 % 1021,6 hPa 0,0 l/m² 0 min 17 W/m² 0,0 km/h (0 Bft) 95,74 %
06.03.2026 17:54 17,4 °C 14,4 °C 8,9 °C 61 % 1021,6 hPa 0,0 l/m² 0 min 16 W/m² 0,0 km/h (0 Bft) 93,62 %
06.03.2026 17:56 17,3 °C 14,4 °C 8,9 °C 61 % 1021,6 hPa 0,0 l/m² 0 min 14 W/m² 0,0 km/h (0 Bft) 95,74 %
06.03.2026 17:58 17,2 °C 14,4 °C 8,9 °C 61 % 1021,6 hPa 0,0 l/m² 0 min 12 W/m² 0,0 km/h (0 Bft) 93,62 %
06.03.2026 18:00 17,2 °C 14,4 °C 8,9 °C 61 % 1021,7 hPa 0,0 l/m² 0 min 11 W/m² 0,0 km/h (0 Bft) 95,74 %
06.03.2026 18:02 17,1 °C 13,9 °C 8,9 °C 61 % 1021,7 hPa 0,0 l/m² 0 min 11 W/m² 0,0 km/h (0 Bft) 93,48 %
06.03.2026 18:04 17,0 °C 13,9 °C 8,9 °C 61 % 1021,7 hPa 0,0 l/m² 0 min 10 W/m² 0,0 km/h (0 Bft) 91,67 %
06.03.2026 18:08 16,8 °C 13,9 °C 8,3 °C 61 % 1021,7 hPa 0,0 l/m² 0 min 8 W/m² 0,0 km/h (0 Bft) 92,63 %
06.03.2026 18:12 16,7 °C 13,3 °C 8,3 °C 62 % 1021,8 hPa 0,0 l/m² 0 min 7 W/m² 0,0 km/h (0 Bft) 95,65 %
06.03.2026 18:14 16,6 °C 13,3 °C 8,3 °C 62 % 1021,8 hPa 0,0 l/m² 0 min 5 W/m² 0,0 km/h (0 Bft) 93,62 %
06.03.2026 18:16 16,5 °C 13,3 °C 7,8 °C 62 % 1021,9 hPa 0,0 l/m² 0 min 5 W/m² 0,0 km/h (0 Bft) 95,74 %
06.03.2026 18:18 16,4 °C 13,3 °C 7,8 °C 62 % 1021,9 hPa 0,0 l/m² 0 min 4 W/m² 0,0 km/h (0 Bft) 97,87 %
06.03.2026 18:20 16,3 °C 12,8 °C 7,8 °C 63 % 1021,9 hPa 0,0 l/m² 0 min 0 W/m² 0,0 km/h (0 Bft) 97,87 %
06.03.2026 18:22 16,2 °C 12,8 °C 7,8 °C 63 % 1021,9 hPa 0,0 l/m² 0 min 0 W/m² 0,0 km/h (0 Bft) 96,30 %
06.03.2026 18:24 16,1 °C 12,8 °C 7,8 °C 64 % 1022,0 hPa 0,0 l/m² 0 min 0 W/m² 0,0 km/h (0 Bft) 97,14 %
06.03.2026 18:26 16,1 °C 12,8 °C 7,8 °C 64 % 1022,0 hPa 0,0 l/m² 0 min 0 W/m² 0,0 km/h (0 Bft) 97,96 %
06.03.2026 18:28 15,9 °C 12,8 °C 7,8 °C 64 % 1022,0 hPa 0,0 l/m² 0 min 0 W/m² 0,0 km/h (0 Bft) 95,92 %
06.03.2026 18:30 15,8 °C 12,8 °C 7,2 °C 65 % 1022,0 hPa 0,0 l/m² 0 min 0 W/m² 0,0 km/h (0 Bft) 97,87 %
06.03.2026 18:32 15,8 °C 12,2 °C 7,2 °C 65 % 1022,1 hPa 0,0 l/m² 0 min 0 W/m² 0,0 km/h (0 Bft) 97,87 %
06.03.2026 18:34 15,7 °C 12,2 °C 7,2 °C 66 % 1022,1 hPa 0,0 l/m² 0 min 0 W/m² 0,0 km/h (0 Bft) 98,11 %
06.03.2026 18:36 15,6 °C 12,2 °C 7,2 °C 66 % 1022,1 hPa 0,0 l/m² 0 min 0 W/m² 0,0 km/h (0 Bft) 97,37 %
06.03.2026 18:38 15,4 °C 12,2 °C 7,2 °C 66 % 1022,2 hPa 0,0 l/m² 0 min 0 W/m² 0,0 km/h (0 Bft) 100,00 %
06.03.2026 18:40 15,4 °C 12,2 °C 7,2 °C 66 % 1022,2 hPa 0,0 l/m² 0 min 0 W/m² 0,0 km/h (0 Bft) 100,00 %
06.03.2026 18:42 15,3 °C 12,2 °C 7,2 °C 67 % 1022,2 hPa 0,0 l/m² 0 min 0 W/m² 0,0 km/h (0 Bft) 100,00 %
06.03.2026 18:44 15,2 °C 12,2 °C 7,2 °C 67 % 1022,3 hPa 0,0 l/m² 0 min 0 W/m² 0,0 km/h (0 Bft) 100,00 %
06.03.2026 18:46 15,1 °C 12,2 °C 7,2 °C 67 % 1022,3 hPa 0,0 l/m² 0 min 0 W/m² 0,0 km/h (0 Bft) 100,00 %
06.03.2026 18:48 15,1 °C 12,2 °C 7,2 °C 67 % 1022,4 hPa 0,0 l/m² 0 min 0 W/m² 0,0 km/h (0 Bft) 100,00 %
06.03.2026 18:50 15,0 °C 12,2 °C 7,2 °C 67 % 1022,4 hPa 0,0 l/m² 0 min 0 W/m² 0,0 km/h (0 Bft) 100,00 %
06.03.2026 18:52 14,9 °C 12,2 °C 7,2 °C 67 % 1022,3 hPa 0,0 l/m² 0 min 0 W/m² 0,0 km/h (0 Bft) 100,00 %
06.03.2026 18:54 14,8 °C 11,7 °C 7,2 °C 67 % 1022,4 hPa 0,0 l/m² 0 min 0 W/m² 0,0 km/h (0 Bft) 100,00 %
06.03.2026 18:56 14,7 °C 11,7 °C 7,2 °C 67 % 1022,4 hPa 0,0 l/m² 0 min 0 W/m² 0,0 km/h (0 Bft) 100,00 %
06.03.2026 18:58 14,6 °C 11,7 °C 6,7 °C 67 % 1022,3 hPa 0,0 l/m² 0 min 0 W/m² 0,0 km/h (0 Bft) 100,00 %
06.03.2026 19:00 14,6 °C 11,7 °C 6,7 °C 68 % 1022,4 hPa 0,0 l/m² 0 min 0 W/m² 0,0 km/h (0 Bft) 100,00 %
06.03.2026 19:02 14,5 °C 11,7 °C 6,7 °C 68 % 1022,4 hPa 0,0 l/m² 0 min 0 W/m² 0,0 km/h (0 Bft) 97,62 %
06.03.2026 19:04 14,4 °C 11,7 °C 6,7 °C 68 % 1022,4 hPa 0,0 l/m² 0 min 0 W/m² 0,0 km/h (0 Bft) 100,00 %
06.03.2026 19:06 14,3 °C 11,7 °C 6,7 °C 68 % 1022,5 hPa 0,0 l/m² 0 min 0 W/m² 0,0 km/h (0 Bft) 100,00 %
06.03.2026 19:08 14,3 °C 11,7 °C 6,7 °C 68 % 1022,4 hPa 0,0 l/m² 0 min 0 W/m² 0,0 km/h (0 Bft) 100,00 %
06.03.2026 19:10 14,3 °C 11,7 °C 6,7 °C 68 % 1022,4 hPa 0,0 l/m² 0 min 0 W/m² 0,0 km/h (0 Bft) 100,00 %
06.03.2026 19:12 14,2 °C 11,1 °C 6,7 °C 68 % 1022,5 hPa 0,0 l/m² 0 min 0 W/m² 0,0 km/h (0 Bft) 97,92 %
06.03.2026 19:14 14,1 °C 11,1 °C 6,7 °C 69 % 1022,5 hPa 0,0 l/m² 0 min 0 W/m² 0,0 km/h (0 Bft) 100,00 %
06.03.2026 19:16 14,1 °C 11,1 °C 6,1 °C 70 % 1022,5 hPa 0,0 l/m² 0 min 0 W/m² 0,0 km/h (0 Bft) 97,87 %
06.03.2026 19:18 13,9 °C 11,1 °C 6,1 °C 70 % 1022,5 hPa 0,0 l/m² 0 min 0 W/m² 0,0 km/h (0 Bft) 100,00 %
06.03.2026 19:20 13,9 °C 11,1 °C 6,1 °C 70 % 1022,5 hPa 0,0 l/m² 0 min 0 W/m² 0,0 km/h (0 Bft) 100,00 %
06.03.2026 19:22 13,8 °C 11,1 °C 6,1 °C 70 % 1022,5 hPa 0,0 l/m² 0 min 0 W/m² 0,0 km/h (0 Bft) 97,83 %
06.03.2026 19:24 13,8 °C 11,1 °C 6,1 °C 70 % 1022,5 hPa 0,0 l/m² 0 min 0 W/m² 0,0 km/h (0 Bft) 100,00 %
06.03.2026 19:26 13,7 °C 11,1 °C 6,1 °C 71 % 1022,5 hPa 0,0 l/m² 0 min 0 W/m² 0,0 km/h (0 Bft) 97,87 %
06.03.2026 19:28 13,6 °C 10,6 °C 6,1 °C 71 % 1022,6 hPa 0,0 l/m² 0 min 0 W/m² 0,0 km/h (0 Bft) 100,00 %
06.03.2026 19:30 13,6 °C 10,6 °C 6,1 °C 71 % 1022,6 hPa 0,0 l/m² 0 min 0 W/m² 0,0 km/h (0 Bft) 100,00 %
06.03.2026 19:32 13,5 °C 10,6 °C 6,1 °C 71 % 1022,6 hPa 0,0 l/m² 0 min 0 W/m² 0,0 km/h (0 Bft) 100,00 %
06.03.2026 19:34 13,4 °C 10,6 °C 6,1 °C 71 % 1022,7 hPa 0,0 l/m² 0 min 0 W/m² 0,0 km/h (0 Bft) 97,87 %
06.03.2026 19:36 13,3 °C 10,6 °C 6,1 °C 71 % 1022,7 hPa 0,0 l/m² 0 min 0 W/m² 0,0 km/h (0 Bft) 97,87 %
06.03.2026 19:38 13,3 °C 10,6 °C 6,1 °C 71 % 1022,7 hPa 0,0 l/m² 0 min 0 W/m² 0,0 km/h (0 Bft) 95,74 %
06.03.2026 19:40 13,2 °C 10,6 °C 6,1 °C 71 % 1022,7 hPa 0,0 l/m² 0 min 0 W/m² 0,0 km/h (0 Bft) 97,87 %
06.03.2026 19:42 13,2 °C 10,6 °C 6,1 °C 71 % 1022,7 hPa 0,0 l/m² 0 min 0 W/m² 0,0 km/h (0 Bft) 97,87 %
06.03.2026 19:44 13,1 °C 10,6 °C 5,6 °C 71 % 1022,7 hPa 0,0 l/m² 0 min 0 W/m² 0,0 km/h (0 Bft) 97,83 %
06.03.2026 19:46 13,1 °C 10,6 °C 5,6 °C 72 % 1022,7 hPa 0,0 l/m² 0 min 0 W/m² 0,0 km/h (0 Bft) 95,74 %
06.03.2026 19:48 13,0 °C 10,6 °C 5,6 °C 72 % 1022,7 hPa 0,0 l/m² 0 min 0 W/m² 0,0 km/h (0 Bft) 97,87 %
06.03.2026 19:50 12,9 °C 10,6 °C 5,6 °C 72 % 1022,7 hPa 0,0 l/m² 0 min 0 W/m² 0,0 km/h (0 Bft) 97,87 %
06.03.2026 19:52 12,9 °C 10,6 °C 5,6 °C 72 % 1022,7 hPa 0,0 l/m² 0 min 0 W/m² 0,0 km/h (0 Bft) 91,43 %
06.03.2026 19:54 12,8 °C 10,0 °C 5,6 °C 73 % 1022,7 hPa 0,0 l/m² 0 min 0 W/m² 0,0 km/h (0 Bft) 96,00 %
06.03.2026 19:56 12,7 °C 10,0 °C 5,6 °C 73 % 1022,7 hPa 0,0 l/m² 0 min 0 W/m² 0,0 km/h (0 Bft) 95,74 %
06.03.2026 19:58 12,7 °C 10,0 °C 5,6 °C 73 % 1022,7 hPa 0,0 l/m² 0 min 0 W/m² 0,0 km/h (0 Bft) 93,62 %
06.03.2026 20:00 12,6 °C 10,0 °C 5,6 °C 74 % 1022,8 hPa 0,0 l/m² 0 min 0 W/m² 0,0 km/h (0 Bft) 96,43 %
06.03.2026 20:02 12,6 °C 10,0 °C 5,6 °C 73 % 1022,8 hPa 0,0 l/m² 0 min 0 W/m² 0,0 km/h (0 Bft) 95,74 %
06.03.2026 20:04 12,5 °C 10,0 °C 5,6 °C 73 % 1022,8 hPa 0,0 l/m² 0 min 0 W/m² 0,0 km/h (0 Bft) 95,24 %
06.03.2026 20:06 12,5 °C 10,0 °C 5,6 °C 73 % 1022,8 hPa 0,0 l/m² 0 min 0 W/m² 0,0 km/h (0 Bft) 97,87 %
06.03.2026 20:08 12,4 °C 10,0 °C 5,6 °C 73 % 1022,9 hPa 0,0 l/m² 0 min 0 W/m² 0,0 km/h (0 Bft) 97,83 %
06.03.2026 20:10 12,3 °C 10,0 °C 5,6 °C 73 % 1022,9 hPa 0,0 l/m² 0 min 0 W/m² 0,0 km/h (0 Bft) 95,74 %
06.03.2026 20:12 12,3 °C 10,0 °C 5,6 °C 74 % 1022,9 hPa 0,0 l/m² 0 min 0 W/m² 0,0 km/h (0 Bft) 97,87 %
06.03.2026 20:14 12,2 °C 10,0 °C 5,0 °C 74 % 1022,9 hPa 0,0 l/m² 0 min 0 W/m² 0,0 km/h (0 Bft) 97,87 %
06.03.2026 20:16 12,2 °C 10,0 °C 5,0 °C 74 % 1022,9 hPa 0,0 l/m² 0 min 0 W/m² 0,0 km/h (0 Bft) 97,87 %
06.03.2026 20:18 12,2 °C 10,0 °C 5,0 °C 74 % 1023,0 hPa 0,0 l/m² 0 min 0 W/m² 0,0 km/h (0 Bft) 100,00 %
06.03.2026 20:20 12,1 °C 9,4 °C 5,0 °C 74 % 1023,0 hPa 0,0 l/m² 0 min 0 W/m² 0,0 km/h (0 Bft) 100,00 %
06.03.2026 20:22 12,1 °C 9,4 °C 5,0 °C 74 % 1023,0 hPa 0,0 l/m² 0 min 0 W/m² 0,0 km/h (0 Bft) 97,87 %
06.03.2026 20:24 12,0 °C 9,4 °C 5,0 °C 74 % 1023,0 hPa 0,0 l/m² 0 min 0 W/m² 0,0 km/h (0 Bft) 100,00 %
06.03.2026 20:26 11,9 °C 9,4 °C 5,0 °C 75 % 1023,0 hPa 0,0 l/m² 0 min 0 W/m² 0,0 km/h (0 Bft) 100,00 %
06.03.2026 20:28 11,9 °C 9,4 °C 5,0 °C 75 % 1023,0 hPa 0,0 l/m² 0 min 0 W/m² 0,0 km/h (0 Bft) 63,83 %
06.03.2026 20:30 11,8 °C 9,4 °C 5,0 °C 75 % 1023,0 hPa 0,0 l/m² 0 min 0 W/m² 0,0 km/h (0 Bft) 90,00 %
06.03.2026 20:32 11,8 °C 9,4 °C 5,0 °C 74 % 1023,0 hPa 0,0 l/m² 0 min 0 W/m² 0,0 km/h (0 Bft) 100,00 %
06.03.2026 20:34 11,7 °C 9,4 °C 5,0 °C 75 % 1023,1 hPa 0,0 l/m² 0 min 0 W/m² 0,0 km/h (0 Bft) 97,87 %
06.03.2026 20:36 11,7 °C 9,4 °C 5,0 °C 75 % 1023,1 hPa 0,0 l/m² 0 min 0 W/m² 0,0 km/h (0 Bft) 95,74 %
06.03.2026 20:38 11,7 °C 9,4 °C 5,0 °C 75 % 1023,0 hPa 0,0 l/m² 0 min 0 W/m² 0,0 km/h (0 Bft) 100,00 %
06.03.2026 20:40 11,6 °C 9,4 °C 5,0 °C 75 % 1023,1 hPa 0,0 l/m² 0 min 0 W/m² 0,0 km/h (0 Bft) 97,87 %
06.03.2026 20:42 11,6 °C 9,4 °C 5,0 °C 76 % 1023,1 hPa 0,0 l/m² 0 min 0 W/m² 0,0 km/h (0 Bft) 97,87 %
06.03.2026 20:44 11,5 °C 9,4 °C 5,0 °C 76 % 1023,1 hPa 0,0 l/m² 0 min 0 W/m² 0,0 km/h (0 Bft) 95,65 %
06.03.2026 20:46 11,4 °C 9,4 °C 5,0 °C 76 % 1023,1 hPa 0,0 l/m² 0 min 0 W/m² 0,0 km/h (0 Bft) 97,87 %
06.03.2026 20:48 11,4 °C 9,4 °C 5,0 °C 76 % 1023,1 hPa 0,0 l/m² 0 min 0 W/m² 0,0 km/h (0 Bft) 97,87 %
06.03.2026 20:50 11,4 °C 8,9 °C 5,0 °C 77 % 1023,1 hPa 0,0 l/m² 0 min 0 W/m² 0,0 km/h (0 Bft) 97,87 %
06.03.2026 20:52 11,3 °C 8,9 °C 5,0 °C 77 % 1023,2 hPa 0,0 l/m² 0 min 0 W/m² 0,0 km/h (0 Bft) 95,74 %
06.03.2026 20:54 11,3 °C 8,9 °C 4,4 °C 77 % 1023,2 hPa 0,0 l/m² 0 min 0 W/m² 0,0 km/h (0 Bft) 97,87 %
06.03.2026 20:56 11,2 °C 8,9 °C 4,4 °C 77 % 1023,2 hPa 0,0 l/m² 0 min 0 W/m² 0,0 km/h (0 Bft) 95,65 %
06.03.2026 20:58 11,2 °C 8,9 °C 4,4 °C 77 % 1023,1 hPa 0,0 l/m² 0 min 0 W/m² 0,0 km/h (0 Bft) 97,87 %
06.03.2026 21:00 11,1 °C 8,9 °C 4,4 °C 77 % 1023,2 hPa 0,0 l/m² 0 min 0 W/m² 0,0 km/h (0 Bft) 97,87 %
06.03.2026 21:02 11,1 °C 8,9 °C 4,4 °C 77 % 1023,2 hPa 0,0 l/m² 0 min 0 W/m² 0,0 km/h (0 Bft) 97,87 %
06.03.2026 21:04 11,1 °C 8,9 °C 4,4 °C 77 % 1023,2 hPa 0,0 l/m² 0 min 0 W/m² 0,0 km/h (0 Bft) 97,96 %
06.03.2026 21:06 11,0 °C 8,9 °C 4,4 °C 77 % 1023,2 hPa 0,0 l/m² 0 min 0 W/m² 0,0 km/h (0 Bft) 97,83 %
06.03.2026 21:08 10,9 °C 8,9 °C 4,4 °C 77 % 1023,2 hPa 0,0 l/m² 0 min 0 W/m² 0,0 km/h (0 Bft) 95,74 %
06.03.2026 21:10 10,9 °C 8,9 °C 4,4 °C 77 % 1023,2 hPa 0,0 l/m² 0 min 0 W/m² 0,0 km/h (0 Bft) 97,87 %
06.03.2026 21:12 10,8 °C 8,9 °C 4,4 °C 77 % 1023,2 hPa 0,0 l/m² 0 min 0 W/m² 0,0 km/h (0 Bft) 95,74 %
06.03.2026 21:14 10,8 °C 8,9 °C 4,4 °C 78 % 1023,2 hPa 0,0 l/m² 0 min 0 W/m² 0,0 km/h (0 Bft) 93,62 %
06.03.2026 21:16 10,8 °C 8,9 °C 4,4 °C 78 % 1023,2 hPa 0,0 l/m² 0 min 0 W/m² 0,0 km/h (0 Bft) 95,74 %
06.03.2026 21:18 10,7 °C 8,9 °C 4,4 °C 78 % 1023,2 hPa 0,0 l/m² 0 min 0 W/m² 0,0 km/h (0 Bft) 95,65 %
06.03.2026 21:20 10,7 °C 8,3 °C 4,4 °C 78 % 1023,3 hPa 0,0 l/m² 0 min 0 W/m² 0,0 km/h (0 Bft) 97,87 %
06.03.2026 21:22 10,6 °C 8,3 °C 4,4 °C 78 % 1023,3 hPa 0,0 l/m² 0 min 0 W/m² 0,0 km/h (0 Bft) 91,49 %
06.03.2026 21:24 10,6 °C 8,3 °C 4,4 °C 78 % 1023,3 hPa 0,0 l/m² 0 min 0 W/m² 0,0 km/h (0 Bft) 91,49 %
06.03.2026 21:26 10,6 °C 8,3 °C 4,4 °C 78 % 1023,3 hPa 0,0 l/m² 0 min 0 W/m² 0,0 km/h (0 Bft) 95,74 %
06.03.2026 21:28 10,5 °C 8,3 °C 4,4 °C 79 % 1023,4 hPa 0,0 l/m² 0 min 0 W/m² 0,0 km/h (0 Bft) 91,49 %
06.03.2026 21:30 10,4 °C 8,3 °C 3,9 °C 79 % 1023,4 hPa 0,0 l/m² 0 min 0 W/m² 0,0 km/h (0 Bft) 89,13 %
06.03.2026 21:32 10,4 °C 8,3 °C 3,9 °C 79 % 1023,4 hPa 0,0 l/m² 0 min 0 W/m² 0,0 km/h (0 Bft) 93,62 %
06.03.2026 21:34 10,4 °C 8,3 °C 3,9 °C 80 % 1023,4 hPa 0,0 l/m² 0 min 0 W/m² 0,0 km/h (0 Bft) 91,49 %
06.03.2026 21:36 10,4 °C 8,3 °C 3,9 °C 80 % 1023,4 hPa 0,0 l/m² 0 min 0 W/m² 0,0 km/h (0 Bft) 93,62 %
06.03.2026 21:38 10,3 °C 8,3 °C 3,9 °C 80 % 1023,4 hPa 0,0 l/m² 0 min 0 W/m² 0,0 km/h (0 Bft) 93,62 %
06.03.2026 21:40 10,3 °C 8,3 °C 3,9 °C 80 % 1023,4 hPa 0,0 l/m² 0 min 0 W/m² 0,0 km/h (0 Bft) 93,62 %
06.03.2026 21:42 10,2 °C 8,3 °C 3,9 °C 80 % 1023,4 hPa 0,0 l/m² 0 min 0 W/m² 0,0 km/h (0 Bft) 93,62 %
06.03.2026 21:44 10,2 °C 8,3 °C 3,9 °C 81 % 1023,4 hPa 0,0 l/m² 0 min 0 W/m² 0,0 km/h (0 Bft) 92,86 %
06.03.2026 21:46 10,2 °C 8,3 °C 3,9 °C 80 % 1023,5 hPa 0,0 l/m² 0 min 0 W/m² 0,0 km/h (0 Bft) 93,62 %
06.03.2026 21:48 10,1 °C 8,3 °C 3,9 °C 81 % 1023,5 hPa 0,0 l/m² 0 min 0 W/m² 0,0 km/h (0 Bft) 93,62 %
06.03.2026 21:50 10,1 °C 7,8 °C 3,9 °C 81 % 1023,4 hPa 0,0 l/m² 0 min 0 W/m² 0,0 km/h (0 Bft) 91,49 %
06.03.2026 21:52 10,1 °C 7,8 °C 3,9 °C 81 % 1023,4 hPa 0,0 l/m² 0 min 0 W/m² 0,0 km/h (0 Bft) 93,48 %
06.03.2026 21:54 10,0 °C 7,8 °C 3,9 °C 81 % 1023,4 hPa 0,0 l/m² 0 min 0 W/m² 0,0 km/h (0 Bft) 100,00 %
06.03.2026 21:56 9,9 °C 7,8 °C 3,9 °C 81 % 1023,4 hPa 0,0 l/m² 0 min 0 W/m² 0,0 km/h (0 Bft) 100,00 %
06.03.2026 21:58 9,9 °C 7,8 °C 3,9 °C 81 % 1023,5 hPa 0,0 l/m² 0 min 0 W/m² 0,0 km/h (0 Bft) 100,00 %
06.03.2026 22:00 9,9 °C 7,8 °C 3,9 °C 81 % 1023,5 hPa 0,0 l/m² 0 min 0 W/m² 0,0 km/h (0 Bft) 100,00 %
06.03.2026 22:02 9,8 °C 7,8 °C 3,9 °C 81 % 1023,5 hPa 0,0 l/m² 0 min 0 W/m² 0,0 km/h (0 Bft) 97,87 %
06.03.2026 22:04 9,8 °C 7,8 °C 3,9 °C 81 % 1023,5 hPa 0,0 l/m² 0 min 0 W/m² 0,0 km/h (0 Bft) 100,00 %
06.03.2026 22:06 9,8 °C 7,8 °C 3,9 °C 81 % 1023,5 hPa 0,0 l/m² 0 min 0 W/m² 0,0 km/h (0 Bft) 100,00 %
06.03.2026 22:08 9,7 °C 7,8 °C 3,9 °C 81 % 1023,5 hPa 0,0 l/m² 0 min 0 W/m² 0,0 km/h (0 Bft) 100,00 %
06.03.2026 22:10 9,7 °C 7,8 °C 3,9 °C 81 % 1023,5 hPa 0,0 l/m² 0 min 0 W/m² 0,0 km/h (0 Bft) 100,00 %
06.03.2026 22:12 9,6 °C 7,8 °C 3,9 °C 81 % 1023,5 hPa 0,0 l/m² 0 min 0 W/m² 0,0 km/h (0 Bft) 100,00 %
06.03.2026 22:14 9,6 °C 7,8 °C 3,9 °C 81 % 1023,5 hPa 0,0 l/m² 0 min 0 W/m² 0,0 km/h (0 Bft) 97,87 %
06.03.2026 22:16 9,6 °C 7,8 °C 3,9 °C 81 % 1023,5 hPa 0,0 l/m² 0 min 0 W/m² 0,0 km/h (0 Bft) 100,00 %
06.03.2026 22:18 9,6 °C 7,8 °C 3,9 °C 81 % 1023,5 hPa 0,0 l/m² 0 min 0 W/m² 0,0 km/h (0 Bft) 100,00 %
06.03.2026 22:20 9,5 °C 7,8 °C 3,9 °C 81 % 1023,5 hPa 0,0 l/m² 0 min 0 W/m² 0,0 km/h (0 Bft) 97,87 %
06.03.2026 22:22 9,4 °C 7,8 °C 3,9 °C 81 % 1023,5 hPa 0,0 l/m² 0 min 0 W/m² 0,0 km/h (0 Bft) 100,00 %
06.03.2026 22:24 9,4 °C 7,2 °C 3,3 °C 81 % 1023,5 hPa 0,0 l/m² 0 min 0 W/m² 0,0 km/h (0 Bft) 100,00 %
06.03.2026 22:26 9,4 °C 7,2 °C 3,3 °C 81 % 1023,5 hPa 0,0 l/m² 0 min 0 W/m² 0,0 km/h (0 Bft) 100,00 %
06.03.2026 22:28 9,3 °C 7,2 °C 3,3 °C 81 % 1023,5 hPa 0,0 l/m² 0 min 0 W/m² 0,0 km/h (0 Bft) 100,00 %
06.03.2026 22:30 9,3 °C 7,2 °C 3,3 °C 81 % 1023,6 hPa 0,0 l/m² 0 min 0 W/m² 0,0 km/h (0 Bft) 100,00 %
06.03.2026 22:32 9,3 °C 7,2 °C 3,3 °C 81 % 1023,6 hPa 0,0 l/m² 0 min 0 W/m² 0,0 km/h (0 Bft) 100,00 %
06.03.2026 22:34 9,2 °C 7,2 °C 3,3 °C 82 % 1023,6 hPa 0,0 l/m² 0 min 0 W/m² 0,0 km/h (0 Bft) 95,74 %
06.03.2026 22:36 9,2 °C 7,2 °C 3,3 °C 82 % 1023,6 hPa 0,0 l/m² 0 min 0 W/m² 0,0 km/h (0 Bft) 100,00 %
06.03.2026 22:38 9,2 °C 7,2 °C 3,3 °C 82 % 1023,6 hPa 0,0 l/m² 0 min 0 W/m² 0,0 km/h (0 Bft) 100,00 %
06.03.2026 22:40 9,1 °C 7,8 °C 3,3 °C 82 % 1023,6 hPa 0,0 l/m² 0 min 0 W/m² 0,0 km/h (0 Bft) 100,00 %
06.03.2026 22:42 9,1 °C 7,8 °C 3,3 °C 82 % 1023,6 hPa 0,0 l/m² 0 min 0 W/m² 0,0 km/h (0 Bft) 100,00 %
06.03.2026 22:44 9,1 °C 7,8 °C 3,3 °C 82 % 1023,6 hPa 0,0 l/m² 0 min 0 W/m² 0,0 km/h (0 Bft) 100,00 %
06.03.2026 22:46 9,1 °C 7,8 °C 3,3 °C 82 % 1023,6 hPa 0,0 l/m² 0 min 0 W/m² 0,0 km/h (0 Bft) 100,00 %
06.03.2026 22:48 9,0 °C 7,8 °C 3,3 °C 82 % 1023,6 hPa 0,0 l/m² 0 min 0 W/m² 0,0 km/h (0 Bft) 97,87 %
06.03.2026 22:50 8,9 °C 7,2 °C 3,3 °C 83 % 1023,6 hPa 0,0 l/m² 0 min 0 W/m² 0,0 km/h (0 Bft) 100,00 %
06.03.2026 22:52 8,9 °C 7,2 °C 3,3 °C 83 % 1023,6 hPa 0,0 l/m² 0 min 0 W/m² 0,0 km/h (0 Bft) 97,87 %
06.03.2026 22:54 8,9 °C 7,2 °C 3,3 °C 83 % 1023,7 hPa 0,0 l/m² 0 min 0 W/m² 0,0 km/h (0 Bft) 100,00 %
06.03.2026 22:56 8,9 °C 7,2 °C 3,3 °C 83 % 1023,7 hPa 0,0 l/m² 0 min 0 W/m² 0,0 km/h (0 Bft) 97,87 %
06.03.2026 22:58 8,8 °C 7,2 °C 3,3 °C 83 % 1023,6 hPa 0,0 l/m² 0 min 0 W/m² 0,0 km/h (0 Bft) 100,00 %
06.03.2026 23:00 8,8 °C 6,7 °C 3,3 °C 83 % 1023,7 hPa 0,0 l/m² 0 min 0 W/m² 0,0 km/h (0 Bft) 100,00 %
06.03.2026 23:02 8,8 °C 6,7 °C 3,3 °C 83 % 1023,6 hPa 0,0 l/m² 0 min 0 W/m² 0,0 km/h (0 Bft) 93,48 %
06.03.2026 23:04 8,8 °C 6,7 °C 3,3 °C 83 % 1023,6 hPa 0,0 l/m² 0 min 0 W/m² 0,0 km/h (0 Bft) 93,02 %
06.03.2026 23:06 8,7 °C 6,7 °C 3,3 °C 83 % 1023,7 hPa 0,0 l/m² 0 min 0 W/m² 0,0 km/h (0 Bft) 93,10 %
06.03.2026 23:08 8,7 °C 6,7 °C 3,3 °C 83 % 1023,7 hPa 0,0 l/m² 0 min 0 W/m² 0,0 km/h (0 Bft) 100,00 %
06.03.2026 23:10 8,7 °C 7,2 °C 3,3 °C 83 % 1023,7 hPa 0,0 l/m² 0 min 0 W/m² 3,2 km/h (1 Bft) 91,49 %
06.03.2026 23:12 8,7 °C 6,7 °C 3,3 °C 83 % 1023,7 hPa 0,0 l/m² 0 min 0 W/m² 0,0 km/h (0 Bft) 95,74 %
06.03.2026 23:14 8,6 °C 6,7 °C 2,8 °C 83 % 1023,7 hPa 0,0 l/m² 0 min 0 W/m² 0,0 km/h (0 Bft) 93,62 %
06.03.2026 23:16 8,6 °C 6,7 °C 3,3 °C 83 % 1023,7 hPa 0,0 l/m² 0 min 0 W/m² 0,0 km/h (0 Bft) 95,74 %
06.03.2026 23:18 8,6 °C 7,2 °C 3,3 °C 83 % 1023,7 hPa 0,0 l/m² 0 min 0 W/m² 0,0 km/h (0 Bft) 95,65 %
06.03.2026 23:20 8,5 °C 7,2 °C 3,3 °C 83 % 1023,7 hPa 0,0 l/m² 0 min 0 W/m² 0,0 km/h (0 Bft) 95,74 %
06.03.2026 23:22 8,4 °C 7,2 °C 3,3 °C 83 % 1023,7 hPa 0,0 l/m² 0 min 0 W/m² 0,0 km/h (0 Bft) 93,62 %
06.03.2026 23:24 8,4 °C 7,2 °C 3,3 °C 84 % 1023,8 hPa 0,0 l/m² 0 min 0 W/m² 0,0 km/h (0 Bft) 95,74 %
06.03.2026 23:26 8,4 °C 7,2 °C 3,3 °C 84 % 1023,8 hPa 0,0 l/m² 0 min 0 W/m² 0,0 km/h (0 Bft) 95,74 %
06.03.2026 23:28 8,4 °C 7,2 °C 3,3 °C 84 % 1023,8 hPa 0,0 l/m² 0 min 0 W/m² 0,0 km/h (0 Bft) 97,87 %
06.03.2026 23:30 8,3 °C 7,2 °C 3,3 °C 84 % 1023,8 hPa 0,0 l/m² 0 min 0 W/m² 0,0 km/h (0 Bft) 97,83 %
06.03.2026 23:32 8,3 °C 7,2 °C 2,8 °C 84 % 1023,9 hPa 0,0 l/m² 0 min 0 W/m² 0,0 km/h (0 Bft) 97,87 %
06.03.2026 23:34 8,3 °C 6,7 °C 2,8 °C 84 % 1023,9 hPa 0,0 l/m² 0 min 0 W/m² 0,0 km/h (0 Bft) 100,00 %
06.03.2026 23:36 8,3 °C 6,7 °C 2,8 °C 84 % 1023,9 hPa 0,0 l/m² 0 min 0 W/m² 0,0 km/h (0 Bft) 100,00 %
06.03.2026 23:38 8,3 °C 6,7 °C 2,8 °C 84 % 1023,9 hPa 0,0 l/m² 0 min 0 W/m² 0,0 km/h (0 Bft) 100,00 %
06.03.2026 23:40 8,2 °C 6,7 °C 2,8 °C 84 % 1023,8 hPa 0,0 l/m² 0 min 0 W/m² 0,0 km/h (0 Bft) 100,00 %
06.03.2026 23:42 8,2 °C 6,7 °C 2,8 °C 84 % 1023,8 hPa 0,0 l/m² 0 min 0 W/m² 0,0 km/h (0 Bft) 100,00 %
06.03.2026 23:44 8,2 °C 6,7 °C 2,8 °C 84 % 1023,9 hPa 0,0 l/m² 0 min 0 W/m² 0,0 km/h (0 Bft) 97,87 %
06.03.2026 23:46 8,2 °C 6,7 °C 2,8 °C 84 % 1023,8 hPa 0,0 l/m² 0 min 0 W/m² 0,0 km/h (0 Bft) 100,00 %
06.03.2026 23:48 8,2 °C 6,7 °C 2,8 °C 84 % 1023,9 hPa 0,0 l/m² 0 min 0 W/m² 0,0 km/h (0 Bft) 100,00 %
06.03.2026 23:50 8,1 °C 6,7 °C 2,8 °C 85 % 1023,8 hPa 0,0 l/m² 0 min 0 W/m² 0,0 km/h (0 Bft) 98,00 %
06.03.2026 23:52 8,1 °C 6,7 °C 2,8 °C 85 % 1023,8 hPa 0,0 l/m² 0 min 0 W/m² 0,0 km/h (0 Bft) 100,00 %
06.03.2026 23:54 8,1 °C 6,7 °C 2,8 °C 85 % 1023,8 hPa 0,0 l/m² 0 min 0 W/m² 0,0 km/h (0 Bft) 100,00 %
06.03.2026 23:56 8,1 °C 6,7 °C 2,8 °C 85 % 1023,8 hPa 0,0 l/m² 0 min 0 W/m² 0,0 km/h (0 Bft) 100,00 %
06.03.2026 23:58 8,1 °C 6,7 °C 2,8 °C 85 % 1023,8 hPa 0,0 l/m² 0 min 0 W/m² 0,0 km/h (0 Bft) 100,00 %
_ Min-Zeit 07:30 07:15 06:55 15:52 00:46 - - - 00:12 05:16
Minimum _ 7,3 °C 5,6 °C 2,2 °C 50 % 1019,7 hPa - - - 0,0 km/h (0 Bft) 45,95 %
_ Max-Zeit 15:38 13:42 11:36 23:50 23:32 00:00 09:11 12:34 09:38 00:10
Maximum _ 20,3 °C 26,1 °C 15,6 °C 85 % 1023,9 hPa 0,0 l/m² 5 min 485 W/m² 22,5 km/h
O-SO (4 Bft)
100,00 %
Durchschnitt _ 12,4 °C 12,6 °C 7,2 °C 69 % 1021,5 hPa #0,0 l/m² #8:13 h 259 W/m² 5,9 km/h (2 Bft) 97,46 %
© 2026 W. Hausmann